<?xml version="1.0" encoding="UTF-8" standalone="no" ?>
<gpx xmlns="http://www.topografix.com/GPX/1/1" xmlns:xsi="http://www.w3.org/2001/XMLSchema-instance" xsi:schemaLocation="http://www.topografix.com/GPX/1/1 http://www.topografix.com/GPX/1/1/gpx.xsd" version="1.1" creator="VisuGPX - https://www.visugpx.com">
  <metadata>
    <name>circuit bois des vouillants par catane</name>
  </metadata>
  <trk>
    <name><![CDATA[Tour sans Venin par Comboire et voie du tram - 18658 - UtagawaVTT.com]]></name>
    <trkseg>
      <trkpt lat="45.17919" lon="5.71527">
        <ele>214</ele>
        <time>2018-07-02T11:16:33Z</time>
      </trkpt>
      <trkpt lat="45.17925" lon="5.71525">
        <ele>214</ele>
        <time>2018-07-02T11:16:54Z</time>
      </trkpt>
      <trkpt lat="45.1792" lon="5.71475">
        <ele>214</ele>
        <time>2018-07-02T11:18:34Z</time>
      </trkpt>
      <trkpt lat="45.17921" lon="5.71481">
        <ele>214</ele>
        <time>2018-07-02T11:18:44Z</time>
      </trkpt>
      <trkpt lat="45.1792" lon="5.71479">
        <ele>214</ele>
        <time>2018-07-02T11:18:53Z</time>
      </trkpt>
      <trkpt lat="45.17934" lon="5.71475">
        <ele>214</ele>
        <time>2018-07-02T11:19:00Z</time>
      </trkpt>
      <trkpt lat="45.1797" lon="5.71472">
        <ele>214</ele>
        <time>2018-07-02T11:19:12Z</time>
      </trkpt>
      <trkpt lat="45.17997" lon="5.71481">
        <ele>214</ele>
        <time>2018-07-02T11:19:20Z</time>
      </trkpt>
      <trkpt lat="45.18009" lon="5.71489">
        <ele>213.970856</ele>
        <time>2018-07-02T11:19:25Z</time>
      </trkpt>
      <trkpt lat="45.18014" lon="5.71517">
        <ele>213.822922</ele>
        <time>2018-07-02T11:19:27Z</time>
      </trkpt>
      <trkpt lat="45.18033" lon="5.71524">
        <ele>213.387497</ele>
        <time>2018-07-02T11:19:40Z</time>
      </trkpt>
      <trkpt lat="45.18042" lon="5.71519">
        <ele>213.187378</ele>
        <time>2018-07-02T11:19:48Z</time>
      </trkpt>
      <trkpt lat="45.18044" lon="5.71515">
        <ele>213.203781</ele>
        <time>2018-07-02T11:19:49Z</time>
      </trkpt>
      <trkpt lat="45.18044" lon="5.715">
        <ele>213.408585</ele>
        <time>2018-07-02T11:19:53Z</time>
      </trkpt>
      <trkpt lat="45.18032" lon="5.71459">
        <ele>213.966949</ele>
        <time>2018-07-02T11:20:00Z</time>
      </trkpt>
      <trkpt lat="45.18039" lon="5.71429">
        <ele>214</ele>
        <time>2018-07-02T11:20:05Z</time>
      </trkpt>
      <trkpt lat="45.1804" lon="5.71371">
        <ele>214</ele>
        <time>2018-07-02T11:20:15Z</time>
      </trkpt>
      <trkpt lat="45.18035" lon="5.71285">
        <ele>214</ele>
        <time>2018-07-02T11:20:29Z</time>
      </trkpt>
      <trkpt lat="45.18035" lon="5.71231">
        <ele>214</ele>
        <time>2018-07-02T11:20:37Z</time>
      </trkpt>
      <trkpt lat="45.18019" lon="5.71182">
        <ele>214.258484</ele>
        <time>2018-07-02T11:20:45Z</time>
      </trkpt>
      <trkpt lat="45.18" lon="5.71144">
        <ele>214.909958</ele>
        <time>2018-07-02T11:20:52Z</time>
      </trkpt>
      <trkpt lat="45.18002" lon="5.71047">
        <ele>215</ele>
        <time>2018-07-02T11:21:08Z</time>
      </trkpt>
      <trkpt lat="45.1802" lon="5.71003">
        <ele>215</ele>
        <time>2018-07-02T11:21:15Z</time>
      </trkpt>
      <trkpt lat="45.18027" lon="5.7089">
        <ele>215.877502</ele>
        <time>2018-07-02T11:21:33Z</time>
      </trkpt>
      <trkpt lat="45.18027" lon="5.70841">
        <ele>216</ele>
        <time>2018-07-02T11:21:41Z</time>
      </trkpt>
      <trkpt lat="45.1802" lon="5.70767">
        <ele>216</ele>
        <time>2018-07-02T11:21:53Z</time>
      </trkpt>
      <trkpt lat="45.18018" lon="5.70622">
        <ele>216.315002</ele>
        <time>2018-07-02T11:22:17Z</time>
      </trkpt>
      <trkpt lat="45.18022" lon="5.70564">
        <ele>216.267502</ele>
        <time>2018-07-02T11:22:30Z</time>
      </trkpt>
      <trkpt lat="45.18028" lon="5.70561">
        <ele>216.149994</ele>
        <time>2018-07-02T11:23:08Z</time>
      </trkpt>
      <trkpt lat="45.18022" lon="5.70511">
        <ele>216.317505</ele>
        <time>2018-07-02T11:23:21Z</time>
      </trkpt>
      <trkpt lat="45.18019" lon="5.70395">
        <ele>216.806808</ele>
        <time>2018-07-02T11:24:07Z</time>
      </trkpt>
      <trkpt lat="45.1802" lon="5.70397">
        <ele>216.776718</ele>
        <time>2018-07-02T11:24:20Z</time>
      </trkpt>
      <trkpt lat="45.18017" lon="5.70381">
        <ele>216.933121</ele>
        <time>2018-07-02T11:24:24Z</time>
      </trkpt>
      <trkpt lat="45.18016" lon="5.70303">
        <ele>216.960632</ele>
        <time>2018-07-02T11:24:40Z</time>
      </trkpt>
      <trkpt lat="45.18019" lon="5.70076">
        <ele>214.337494</ele>
        <time>2018-07-02T11:25:38Z</time>
      </trkpt>
      <trkpt lat="45.18024" lon="5.69856">
        <ele>214</ele>
        <time>2018-07-02T11:26:07Z</time>
      </trkpt>
      <trkpt lat="45.18031" lon="5.69795">
        <ele>213.963989</ele>
        <time>2018-07-02T11:26:18Z</time>
      </trkpt>
      <trkpt lat="45.18025" lon="5.69771">
        <ele>213.881699</ele>
        <time>2018-07-02T11:26:28Z</time>
      </trkpt>
      <trkpt lat="45.18008" lon="5.6977">
        <ele>214</ele>
        <time>2018-07-02T11:26:32Z</time>
      </trkpt>
      <trkpt lat="45.18002" lon="5.69773">
        <ele>214</ele>
        <time>2018-07-02T11:26:33Z</time>
      </trkpt>
      <trkpt lat="45.1799" lon="5.69788">
        <ele>214</ele>
        <time>2018-07-02T11:26:37Z</time>
      </trkpt>
      <trkpt lat="45.1793" lon="5.69924">
        <ele>215</ele>
        <time>2018-07-02T11:27:00Z</time>
      </trkpt>
      <trkpt lat="45.17893" lon="5.70021">
        <ele>215</ele>
        <time>2018-07-02T11:27:18Z</time>
      </trkpt>
      <trkpt lat="45.17888" lon="5.70025">
        <ele>215</ele>
        <time>2018-07-02T11:27:29Z</time>
      </trkpt>
      <trkpt lat="45.17887" lon="5.70023">
        <ele>215</ele>
        <time>2018-07-02T11:27:59Z</time>
      </trkpt>
      <trkpt lat="45.1789" lon="5.70026">
        <ele>215</ele>
        <time>2018-07-02T11:28:52Z</time>
      </trkpt>
      <trkpt lat="45.17888" lon="5.70022">
        <ele>215</ele>
        <time>2018-07-02T11:29:05Z</time>
      </trkpt>
      <trkpt lat="45.17749" lon="5.70015">
        <ele>216.253815</ele>
        <time>2018-07-02T11:29:32Z</time>
      </trkpt>
      <trkpt lat="45.17502" lon="5.70008">
        <ele>217.243668</ele>
        <time>2018-07-02T11:30:12Z</time>
      </trkpt>
      <trkpt lat="45.16884" lon="5.69997">
        <ele>220.820007</ele>
        <time>2018-07-02T11:31:57Z</time>
      </trkpt>
      <trkpt lat="45.16378" lon="5.69981">
        <ele>221.389999</ele>
        <time>2018-07-02T11:33:20Z</time>
      </trkpt>
      <trkpt lat="45.1631" lon="5.69968">
        <ele>221.243713</ele>
        <time>2018-07-02T11:33:32Z</time>
      </trkpt>
      <trkpt lat="45.16089" lon="5.69912">
        <ele>221.389999</ele>
        <time>2018-07-02T11:34:12Z</time>
      </trkpt>
      <trkpt lat="45.16012" lon="5.69887">
        <ele>221.422501</ele>
        <time>2018-07-02T11:34:27Z</time>
      </trkpt>
      <trkpt lat="45.15992" lon="5.69878">
        <ele>221.690002</ele>
        <time>2018-07-02T11:34:31Z</time>
      </trkpt>
      <trkpt lat="45.15922" lon="5.69866">
        <ele>220.541199</ele>
        <time>2018-07-02T11:34:43Z</time>
      </trkpt>
      <trkpt lat="45.15907" lon="5.69859">
        <ele>220.399368</ele>
        <time>2018-07-02T11:34:45Z</time>
      </trkpt>
      <trkpt lat="45.15894" lon="5.69849">
        <ele>220.618744</ele>
        <time>2018-07-02T11:34:47Z</time>
      </trkpt>
      <trkpt lat="45.15876" lon="5.69829">
        <ele>221.496246</ele>
        <time>2018-07-02T11:34:51Z</time>
      </trkpt>
      <trkpt lat="45.15748" lon="5.69763">
        <ele>224.970001</ele>
        <time>2018-07-02T11:35:16Z</time>
      </trkpt>
      <trkpt lat="45.15657" lon="5.69708">
        <ele>227.42215</ele>
        <time>2018-07-02T11:35:33Z</time>
      </trkpt>
      <trkpt lat="45.15615" lon="5.69686">
        <ele>227.992065</ele>
        <time>2018-07-02T11:35:41Z</time>
      </trkpt>
      <trkpt lat="45.15604" lon="5.69674">
        <ele>228.411407</ele>
        <time>2018-07-02T11:35:44Z</time>
      </trkpt>
      <trkpt lat="45.15597" lon="5.6966">
        <ele>229.001816</ele>
        <time>2018-07-02T11:35:48Z</time>
      </trkpt>
      <trkpt lat="45.15596" lon="5.69654">
        <ele>229.375732</ele>
        <time>2018-07-02T11:35:50Z</time>
      </trkpt>
      <trkpt lat="45.156" lon="5.69648">
        <ele>229.857498</ele>
        <time>2018-07-02T11:35:53Z</time>
      </trkpt>
      <trkpt lat="45.15613" lon="5.69614">
        <ele>232.008743</ele>
        <time>2018-07-02T11:36:06Z</time>
      </trkpt>
      <trkpt lat="45.15625" lon="5.69572">
        <ele>234.501251</ele>
        <time>2018-07-02T11:36:21Z</time>
      </trkpt>
      <trkpt lat="45.15675" lon="5.69567">
        <ele>235.267502</ele>
        <time>2018-07-02T11:36:44Z</time>
      </trkpt>
      <trkpt lat="45.15679" lon="5.69564">
        <ele>235.430115</ele>
        <time>2018-07-02T11:36:47Z</time>
      </trkpt>
      <trkpt lat="45.15679" lon="5.69556">
        <ele>235.791763</ele>
        <time>2018-07-02T11:36:49Z</time>
      </trkpt>
      <trkpt lat="45.15642" lon="5.69518">
        <ele>237.494995</ele>
        <time>2018-07-02T11:37:08Z</time>
      </trkpt>
      <trkpt lat="45.15641" lon="5.69509">
        <ele>237.929993</ele>
        <time>2018-07-02T11:37:12Z</time>
      </trkpt>
      <trkpt lat="45.15627" lon="5.69466">
        <ele>239.676224</ele>
        <time>2018-07-02T11:37:27Z</time>
      </trkpt>
      <trkpt lat="45.15618" lon="5.69426">
        <ele>241.889999</ele>
        <time>2018-07-02T11:37:43Z</time>
      </trkpt>
      <trkpt lat="45.156" lon="5.69252">
        <ele>255.8797</ele>
        <time>2018-07-02T11:38:52Z</time>
      </trkpt>
      <trkpt lat="45.15599" lon="5.69217">
        <ele>259.122498</ele>
        <time>2018-07-02T11:39:06Z</time>
      </trkpt>
      <trkpt lat="45.15604" lon="5.69174">
        <ele>262.724487</ele>
        <time>2018-07-02T11:39:22Z</time>
      </trkpt>
      <trkpt lat="45.15626" lon="5.69097">
        <ele>268.440765</ele>
        <time>2018-07-02T11:39:57Z</time>
      </trkpt>
      <trkpt lat="45.15648" lon="5.69041">
        <ele>271.982849</ele>
        <time>2018-07-02T11:40:29Z</time>
      </trkpt>
      <trkpt lat="45.15657" lon="5.69025">
        <ele>272.786346</ele>
        <time>2018-07-02T11:40:40Z</time>
      </trkpt>
      <trkpt lat="45.15646" lon="5.69022">
        <ele>272.899506</ele>
        <time>2018-07-02T11:40:50Z</time>
      </trkpt>
      <trkpt lat="45.15647" lon="5.68933">
        <ele>279.498657</ele>
        <time>2018-07-02T11:41:25Z</time>
      </trkpt>
      <trkpt lat="45.15645" lon="5.68902">
        <ele>281.570801</ele>
        <time>2018-07-02T11:41:38Z</time>
      </trkpt>
      <trkpt lat="45.15631" lon="5.68806">
        <ele>290.467896</ele>
        <time>2018-07-02T11:42:25Z</time>
      </trkpt>
      <trkpt lat="45.15618" lon="5.68781">
        <ele>293.10675</ele>
        <time>2018-07-02T11:42:39Z</time>
      </trkpt>
      <trkpt lat="45.15601" lon="5.68759">
        <ele>295.302307</ele>
        <time>2018-07-02T11:42:55Z</time>
      </trkpt>
      <trkpt lat="45.15595" lon="5.68744">
        <ele>296.508026</ele>
        <time>2018-07-02T11:43:04Z</time>
      </trkpt>
      <trkpt lat="45.15566" lon="5.68705">
        <ele>300.112488</ele>
        <time>2018-07-02T11:43:31Z</time>
      </trkpt>
      <trkpt lat="45.15553" lon="5.68666">
        <ele>301.73822</ele>
        <time>2018-07-02T11:43:51Z</time>
      </trkpt>
      <trkpt lat="45.15539" lon="5.68652">
        <ele>301.047211</ele>
        <time>2018-07-02T11:44:03Z</time>
      </trkpt>
      <trkpt lat="45.15538" lon="5.68646">
        <ele>301.074585</ele>
        <time>2018-07-02T11:44:06Z</time>
      </trkpt>
      <trkpt lat="45.15547" lon="5.68618">
        <ele>303.21875</ele>
        <time>2018-07-02T11:44:19Z</time>
      </trkpt>
      <trkpt lat="45.15561" lon="5.68592">
        <ele>306.123932</ele>
        <time>2018-07-02T11:44:33Z</time>
      </trkpt>
      <trkpt lat="45.15591" lon="5.68547">
        <ele>310.130554</ele>
        <time>2018-07-02T11:45:03Z</time>
      </trkpt>
      <trkpt lat="45.1561" lon="5.68491">
        <ele>314.741486</ele>
        <time>2018-07-02T11:45:34Z</time>
      </trkpt>
      <trkpt lat="45.15611" lon="5.68481">
        <ele>315.724518</ele>
        <time>2018-07-02T11:45:39Z</time>
      </trkpt>
      <trkpt lat="45.15618" lon="5.68467">
        <ele>316.985077</ele>
        <time>2018-07-02T11:45:47Z</time>
      </trkpt>
      <trkpt lat="45.1562" lon="5.68461">
        <ele>317.558289</ele>
        <time>2018-07-02T11:45:50Z</time>
      </trkpt>
      <trkpt lat="45.15618" lon="5.68458">
        <ele>317.917206</ele>
        <time>2018-07-02T11:45:52Z</time>
      </trkpt>
      <trkpt lat="45.15599" lon="5.68443">
        <ele>319.649994</ele>
        <time>2018-07-02T11:46:07Z</time>
      </trkpt>
      <trkpt lat="45.15569" lon="5.68389">
        <ele>324.163605</ele>
        <time>2018-07-02T11:46:39Z</time>
      </trkpt>
      <trkpt lat="45.15547" lon="5.6837">
        <ele>325.363739</ele>
        <time>2018-07-02T11:46:55Z</time>
      </trkpt>
      <trkpt lat="45.15521" lon="5.68355">
        <ele>325.993744</ele>
        <time>2018-07-02T11:47:13Z</time>
      </trkpt>
      <trkpt lat="45.15466" lon="5.68357">
        <ele>327.055603</ele>
        <time>2018-07-02T11:47:48Z</time>
      </trkpt>
      <trkpt lat="45.15433" lon="5.68345">
        <ele>329.302368</ele>
        <time>2018-07-02T11:48:03Z</time>
      </trkpt>
      <trkpt lat="45.15406" lon="5.68326">
        <ele>331.025909</ele>
        <time>2018-07-02T11:48:16Z</time>
      </trkpt>
      <trkpt lat="45.15388" lon="5.68308">
        <ele>331.974243</ele>
        <time>2018-07-02T11:48:26Z</time>
      </trkpt>
      <trkpt lat="45.15387" lon="5.6831">
        <ele>332.056763</ele>
        <time>2018-07-02T11:48:28Z</time>
      </trkpt>
      <trkpt lat="45.15396" lon="5.68317">
        <ele>331.543671</ele>
        <time>2018-07-02T11:48:33Z</time>
      </trkpt>
      <trkpt lat="45.154" lon="5.68327">
        <ele>331.442139</ele>
        <time>2018-07-02T11:48:37Z</time>
      </trkpt>
      <trkpt lat="45.15398" lon="5.68329">
        <ele>331.596558</ele>
        <time>2018-07-02T11:48:38Z</time>
      </trkpt>
      <trkpt lat="45.15391" lon="5.68329">
        <ele>332.136627</ele>
        <time>2018-07-02T11:48:42Z</time>
      </trkpt>
      <trkpt lat="45.15359" lon="5.683">
        <ele>333.956757</ele>
        <time>2018-07-02T11:48:59Z</time>
      </trkpt>
      <trkpt lat="45.15334" lon="5.68272">
        <ele>336.696381</ele>
        <time>2018-07-02T11:49:13Z</time>
      </trkpt>
      <trkpt lat="45.15326" lon="5.68255">
        <ele>338.059204</ele>
        <time>2018-07-02T11:49:20Z</time>
      </trkpt>
      <trkpt lat="45.15323" lon="5.68243">
        <ele>338.849609</ele>
        <time>2018-07-02T11:49:25Z</time>
      </trkpt>
      <trkpt lat="45.15295" lon="5.68206">
        <ele>342.222504</ele>
        <time>2018-07-02T11:49:42Z</time>
      </trkpt>
      <trkpt lat="45.15265" lon="5.68186">
        <ele>344.539642</ele>
        <time>2018-07-02T11:49:58Z</time>
      </trkpt>
      <trkpt lat="45.15219" lon="5.68171">
        <ele>347.419281</ele>
        <time>2018-07-02T11:50:18Z</time>
      </trkpt>
      <trkpt lat="45.15136" lon="5.6816">
        <ele>352.939056</ele>
        <time>2018-07-02T11:50:53Z</time>
      </trkpt>
      <trkpt lat="45.15123" lon="5.68146">
        <ele>353.591248</ele>
        <time>2018-07-02T11:51:07Z</time>
      </trkpt>
      <trkpt lat="45.15118" lon="5.68144">
        <ele>353.842682</ele>
        <time>2018-07-02T11:51:12Z</time>
      </trkpt>
      <trkpt lat="45.15113" lon="5.68148">
        <ele>354.224213</ele>
        <time>2018-07-02T11:51:15Z</time>
      </trkpt>
      <trkpt lat="45.15111" lon="5.68156">
        <ele>354.554657</ele>
        <time>2018-07-02T11:51:18Z</time>
      </trkpt>
      <trkpt lat="45.15128" lon="5.68213">
        <ele>356.065247</ele>
        <time>2018-07-02T11:51:33Z</time>
      </trkpt>
      <trkpt lat="45.15127" lon="5.68222">
        <ele>356.59726</ele>
        <time>2018-07-02T11:51:35Z</time>
      </trkpt>
      <trkpt lat="45.15123" lon="5.68224">
        <ele>357.18573</ele>
        <time>2018-07-02T11:51:37Z</time>
      </trkpt>
      <trkpt lat="45.15108" lon="5.68216">
        <ele>358.44693</ele>
        <time>2018-07-02T11:51:45Z</time>
      </trkpt>
      <trkpt lat="45.15076" lon="5.68186">
        <ele>359.616974</ele>
        <time>2018-07-02T11:52:03Z</time>
      </trkpt>
      <trkpt lat="45.15047" lon="5.68176">
        <ele>361.617859</ele>
        <time>2018-07-02T11:52:18Z</time>
      </trkpt>
      <trkpt lat="45.15013" lon="5.68144">
        <ele>362.440094</ele>
        <time>2018-07-02T11:52:30Z</time>
      </trkpt>
      <trkpt lat="45.14967" lon="5.68109">
        <ele>364.357239</ele>
        <time>2018-07-02T11:52:45Z</time>
      </trkpt>
      <trkpt lat="45.14937" lon="5.6809">
        <ele>365.461914</ele>
        <time>2018-07-02T11:53:00Z</time>
      </trkpt>
      <trkpt lat="45.14922" lon="5.68087">
        <ele>367.051056</ele>
        <time>2018-07-02T11:53:10Z</time>
      </trkpt>
      <trkpt lat="45.1489" lon="5.68087">
        <ele>371.660004</ele>
        <time>2018-07-02T11:53:34Z</time>
      </trkpt>
      <trkpt lat="45.14886" lon="5.68083">
        <ele>371.61499</ele>
        <time>2018-07-02T11:53:37Z</time>
      </trkpt>
      <trkpt lat="45.14876" lon="5.68086">
        <ele>373.415009</ele>
        <time>2018-07-02T11:53:43Z</time>
      </trkpt>
      <trkpt lat="45.14872" lon="5.68082">
        <ele>373.407745</ele>
        <time>2018-07-02T11:53:46Z</time>
      </trkpt>
      <trkpt lat="45.14863" lon="5.68086">
        <ele>375.181732</ele>
        <time>2018-07-02T11:53:52Z</time>
      </trkpt>
      <trkpt lat="45.14855" lon="5.68082">
        <ele>375.222107</ele>
        <time>2018-07-02T11:53:57Z</time>
      </trkpt>
      <trkpt lat="45.14851" lon="5.68085">
        <ele>376.391479</ele>
        <time>2018-07-02T11:54:00Z</time>
      </trkpt>
      <trkpt lat="45.14824" lon="5.68071">
        <ele>377.117493</ele>
        <time>2018-07-02T11:54:16Z</time>
      </trkpt>
      <trkpt lat="45.14785" lon="5.68062">
        <ele>379.739716</ele>
        <time>2018-07-02T11:54:31Z</time>
      </trkpt>
      <trkpt lat="45.14769" lon="5.68056">
        <ele>380.657043</ele>
        <time>2018-07-02T11:54:44Z</time>
      </trkpt>
      <trkpt lat="45.14757" lon="5.68046">
        <ele>380.749481</ele>
        <time>2018-07-02T11:54:53Z</time>
      </trkpt>
      <trkpt lat="45.14736" lon="5.68024">
        <ele>379.834686</ele>
        <time>2018-07-02T11:55:01Z</time>
      </trkpt>
      <trkpt lat="45.14731" lon="5.68003">
        <ele>378.067017</ele>
        <time>2018-07-02T11:55:07Z</time>
      </trkpt>
      <trkpt lat="45.14732" lon="5.68">
        <ele>377.893005</ele>
        <time>2018-07-02T11:55:08Z</time>
      </trkpt>
      <trkpt lat="45.14746" lon="5.67989">
        <ele>376.694916</ele>
        <time>2018-07-02T11:55:13Z</time>
      </trkpt>
      <trkpt lat="45.14747" lon="5.67986">
        <ele>376.584869</ele>
        <time>2018-07-02T11:55:14Z</time>
      </trkpt>
      <trkpt lat="45.14736" lon="5.67964">
        <ele>376.592987</ele>
        <time>2018-07-02T11:55:27Z</time>
      </trkpt>
      <trkpt lat="45.14732" lon="5.67949">
        <ele>376.295868</ele>
        <time>2018-07-02T11:55:35Z</time>
      </trkpt>
      <trkpt lat="45.14749" lon="5.67871">
        <ele>378.355377</ele>
        <time>2018-07-02T11:56:07Z</time>
      </trkpt>
      <trkpt lat="45.14734" lon="5.67851">
        <ele>380.494812</ele>
        <time>2018-07-02T11:56:22Z</time>
      </trkpt>
      <trkpt lat="45.1472" lon="5.67839">
        <ele>382.196259</ele>
        <time>2018-07-02T11:56:34Z</time>
      </trkpt>
      <trkpt lat="45.1469" lon="5.6786">
        <ele>383.267487</ele>
        <time>2018-07-02T11:56:52Z</time>
      </trkpt>
      <trkpt lat="45.14586" lon="5.67902">
        <ele>389.234192</ele>
        <time>2018-07-02T11:57:40Z</time>
      </trkpt>
      <trkpt lat="45.14561" lon="5.67909">
        <ele>391.812531</ele>
        <time>2018-07-02T11:57:57Z</time>
      </trkpt>
      <trkpt lat="45.14542" lon="5.6791">
        <ele>393.715393</ele>
        <time>2018-07-02T11:58:11Z</time>
      </trkpt>
      <trkpt lat="45.14475" lon="5.67902">
        <ele>400.531128</ele>
        <time>2018-07-02T11:58:55Z</time>
      </trkpt>
      <trkpt lat="45.14468" lon="5.67904">
        <ele>401.676514</ele>
        <time>2018-07-02T11:59:51Z</time>
      </trkpt>
      <trkpt lat="45.14453" lon="5.67899">
        <ele>403.082458</ele>
        <time>2018-07-02T12:00:02Z</time>
      </trkpt>
      <trkpt lat="45.14419" lon="5.67893">
        <ele>407.36203</ele>
        <time>2018-07-02T12:00:32Z</time>
      </trkpt>
      <trkpt lat="45.14392" lon="5.67895">
        <ele>413.113434</ele>
        <time>2018-07-02T12:00:56Z</time>
      </trkpt>
      <trkpt lat="45.14332" lon="5.6788">
        <ele>418.087372</ele>
        <time>2018-07-02T12:01:24Z</time>
      </trkpt>
      <trkpt lat="45.14255" lon="5.67872">
        <ele>422.644684</ele>
        <time>2018-07-02T12:02:10Z</time>
      </trkpt>
      <trkpt lat="45.14232" lon="5.67874">
        <ele>426.252502</ele>
        <time>2018-07-02T12:02:27Z</time>
      </trkpt>
      <trkpt lat="45.14214" lon="5.67878">
        <ele>429.933746</ele>
        <time>2018-07-02T12:02:40Z</time>
      </trkpt>
      <trkpt lat="45.14196" lon="5.67875">
        <ele>431.372986</ele>
        <time>2018-07-02T12:02:53Z</time>
      </trkpt>
      <trkpt lat="45.14174" lon="5.67865">
        <ele>431.089813</ele>
        <time>2018-07-02T12:03:09Z</time>
      </trkpt>
      <trkpt lat="45.14156" lon="5.67859">
        <ele>431.964905</ele>
        <time>2018-07-02T12:03:22Z</time>
      </trkpt>
      <trkpt lat="45.14137" lon="5.67858">
        <ele>433.958649</ele>
        <time>2018-07-02T12:03:33Z</time>
      </trkpt>
      <trkpt lat="45.14095" lon="5.67863">
        <ele>439.535767</ele>
        <time>2018-07-02T12:03:59Z</time>
      </trkpt>
      <trkpt lat="45.14076" lon="5.6787">
        <ele>442.97464</ele>
        <time>2018-07-02T12:04:13Z</time>
      </trkpt>
      <trkpt lat="45.1406" lon="5.67872">
        <ele>444.87204</ele>
        <time>2018-07-02T12:04:26Z</time>
      </trkpt>
      <trkpt lat="45.1395" lon="5.67844">
        <ele>452.205109</ele>
        <time>2018-07-02T12:05:32Z</time>
      </trkpt>
      <trkpt lat="45.13928" lon="5.67834">
        <ele>454.387939</ele>
        <time>2018-07-02T12:05:45Z</time>
      </trkpt>
      <trkpt lat="45.13901" lon="5.67804">
        <ele>455.775299</ele>
        <time>2018-07-02T12:06:34Z</time>
      </trkpt>
      <trkpt lat="45.13893" lon="5.67784">
        <ele>453.507416</ele>
        <time>2018-07-02T12:07:33Z</time>
      </trkpt>
      <trkpt lat="45.13877" lon="5.67749">
        <ele>452.202148</ele>
        <time>2018-07-02T12:07:41Z</time>
      </trkpt>
      <trkpt lat="45.13875" lon="5.67729">
        <ele>449.968506</ele>
        <time>2018-07-02T12:07:44Z</time>
      </trkpt>
      <trkpt lat="45.13876" lon="5.67667">
        <ele>443.171265</ele>
        <time>2018-07-02T12:07:52Z</time>
      </trkpt>
      <trkpt lat="45.13866" lon="5.67603">
        <ele>442.248566</ele>
        <time>2018-07-02T12:08:03Z</time>
      </trkpt>
      <trkpt lat="45.13865" lon="5.67549">
        <ele>438.882599</ele>
        <time>2018-07-02T12:08:10Z</time>
      </trkpt>
      <trkpt lat="45.13859" lon="5.67511">
        <ele>436.055206</ele>
        <time>2018-07-02T12:08:19Z</time>
      </trkpt>
      <trkpt lat="45.13845" lon="5.67453">
        <ele>433.936188</ele>
        <time>2018-07-02T12:08:47Z</time>
      </trkpt>
      <trkpt lat="45.13838" lon="5.67449">
        <ele>434.265015</ele>
        <time>2018-07-02T12:09:03Z</time>
      </trkpt>
      <trkpt lat="45.13839" lon="5.67451">
        <ele>434.384674</ele>
        <time>2018-07-02T12:09:33Z</time>
      </trkpt>
      <trkpt lat="45.13839" lon="5.67445">
        <ele>433.932648</ele>
        <time>2018-07-02T12:09:58Z</time>
      </trkpt>
      <trkpt lat="45.13838" lon="5.67445">
        <ele>434.082489</ele>
        <time>2018-07-02T12:10:27Z</time>
      </trkpt>
      <trkpt lat="45.13836" lon="5.67448">
        <ele>434.484375</ele>
        <time>2018-07-02T12:11:15Z</time>
      </trkpt>
      <trkpt lat="45.13839" lon="5.67441">
        <ele>433.772552</ele>
        <time>2018-07-02T12:11:37Z</time>
      </trkpt>
      <trkpt lat="45.1384" lon="5.67447">
        <ele>434.051422</ele>
        <time>2018-07-02T12:12:05Z</time>
      </trkpt>
      <trkpt lat="45.13835" lon="5.67441">
        <ele>434.063873</ele>
        <time>2018-07-02T12:13:25Z</time>
      </trkpt>
      <trkpt lat="45.13837" lon="5.67445">
        <ele>434.131653</ele>
        <time>2018-07-02T12:14:22Z</time>
      </trkpt>
      <trkpt lat="45.13836" lon="5.67447">
        <ele>434.353943</ele>
        <time>2018-07-02T12:15:16Z</time>
      </trkpt>
      <trkpt lat="45.13839" lon="5.67444">
        <ele>433.899048</ele>
        <time>2018-07-02T12:16:15Z</time>
      </trkpt>
      <trkpt lat="45.13833" lon="5.67447">
        <ele>434.636658</ele>
        <time>2018-07-02T12:17:14Z</time>
      </trkpt>
      <trkpt lat="45.13834" lon="5.67445">
        <ele>434.428284</ele>
        <time>2018-07-02T12:18:02Z</time>
      </trkpt>
      <trkpt lat="45.13832" lon="5.6744">
        <ele>434.276062</ele>
        <time>2018-07-02T12:18:57Z</time>
      </trkpt>
      <trkpt lat="45.13834" lon="5.67447">
        <ele>434.487549</ele>
        <time>2018-07-02T12:20:04Z</time>
      </trkpt>
      <trkpt lat="45.13832" lon="5.67448">
        <ele>434.780151</ele>
        <time>2018-07-02T12:20:38Z</time>
      </trkpt>
      <trkpt lat="45.13834" lon="5.67452">
        <ele>434.970062</ele>
        <time>2018-07-02T12:21:13Z</time>
      </trkpt>
      <trkpt lat="45.13834" lon="5.67447">
        <ele>434.600006</ele>
        <time>2018-07-02T12:21:51Z</time>
      </trkpt>
      <trkpt lat="45.13831" lon="5.67445">
        <ele>434.733643</ele>
        <time>2018-07-02T12:22:28Z</time>
      </trkpt>
      <trkpt lat="45.13833" lon="5.67446">
        <ele>434.600128</ele>
        <time>2018-07-02T12:23:04Z</time>
      </trkpt>
      <trkpt lat="45.13832" lon="5.67449">
        <ele>434.883514</ele>
        <time>2018-07-02T12:23:31Z</time>
      </trkpt>
      <trkpt lat="45.13834" lon="5.67445">
        <ele>434.432007</ele>
        <time>2018-07-02T12:24:24Z</time>
      </trkpt>
      <trkpt lat="45.13834" lon="5.6745">
        <ele>434.785828</ele>
        <time>2018-07-02T12:25:45Z</time>
      </trkpt>
      <trkpt lat="45.13827" lon="5.67454">
        <ele>435.806793</ele>
        <time>2018-07-02T12:26:17Z</time>
      </trkpt>
      <trkpt lat="45.13828" lon="5.67456">
        <ele>435.969147</ele>
        <time>2018-07-02T12:26:52Z</time>
      </trkpt>
      <trkpt lat="45.1384" lon="5.67453">
        <ele>434.452148</ele>
        <time>2018-07-02T12:28:47Z</time>
      </trkpt>
      <trkpt lat="45.13838" lon="5.67451">
        <ele>434.445465</ele>
        <time>2018-07-02T12:29:09Z</time>
      </trkpt>
      <trkpt lat="45.1384" lon="5.6745">
        <ele>434.184906</ele>
        <time>2018-07-02T12:29:38Z</time>
      </trkpt>
      <trkpt lat="45.13835" lon="5.67453">
        <ele>434.943909</ele>
        <time>2018-07-02T12:30:51Z</time>
      </trkpt>
      <trkpt lat="45.1384" lon="5.67448">
        <ele>434.120697</ele>
        <time>2018-07-02T12:31:23Z</time>
      </trkpt>
      <trkpt lat="45.13835" lon="5.67452">
        <ele>434.860565</ele>
        <time>2018-07-02T12:32:18Z</time>
      </trkpt>
      <trkpt lat="45.13836" lon="5.67454">
        <ele>434.882599</ele>
        <time>2018-07-02T12:32:40Z</time>
      </trkpt>
      <trkpt lat="45.13834" lon="5.67455">
        <ele>435.116089</ele>
        <time>2018-07-02T12:33:07Z</time>
      </trkpt>
      <trkpt lat="45.13836" lon="5.67451">
        <ele>434.717255</ele>
        <time>2018-07-02T12:33:30Z</time>
      </trkpt>
      <trkpt lat="45.13843" lon="5.67451">
        <ele>433.968262</ele>
        <time>2018-07-02T12:33:42Z</time>
      </trkpt>
      <trkpt lat="45.13861" lon="5.6744">
        <ele>432.231354</ele>
        <time>2018-07-02T12:33:51Z</time>
      </trkpt>
      <trkpt lat="45.13867" lon="5.67427">
        <ele>431.63913</ele>
        <time>2018-07-02T12:33:56Z</time>
      </trkpt>
      <trkpt lat="45.13895" lon="5.67313">
        <ele>432.261261</ele>
        <time>2018-07-02T12:34:39Z</time>
      </trkpt>
      <trkpt lat="45.13896" lon="5.67297">
        <ele>433.045013</ele>
        <time>2018-07-02T12:34:46Z</time>
      </trkpt>
      <trkpt lat="45.13904" lon="5.67291">
        <ele>433.616241</ele>
        <time>2018-07-02T12:34:54Z</time>
      </trkpt>
      <trkpt lat="45.14008" lon="5.67321">
        <ele>436.292358</ele>
        <time>2018-07-02T12:35:29Z</time>
      </trkpt>
      <trkpt lat="45.14037" lon="5.6732">
        <ele>437.916718</ele>
        <time>2018-07-02T12:35:39Z</time>
      </trkpt>
      <trkpt lat="45.14039" lon="5.67311">
        <ele>438.641418</ele>
        <time>2018-07-02T12:35:42Z</time>
      </trkpt>
      <trkpt lat="45.14034" lon="5.67297">
        <ele>439.075989</ele>
        <time>2018-07-02T12:35:46Z</time>
      </trkpt>
      <trkpt lat="45.14016" lon="5.67266">
        <ele>439.664154</ele>
        <time>2018-07-02T12:35:59Z</time>
      </trkpt>
      <trkpt lat="45.14007" lon="5.67231">
        <ele>441.947968</ele>
        <time>2018-07-02T12:36:12Z</time>
      </trkpt>
      <trkpt lat="45.1402" lon="5.67197">
        <ele>446.191864</ele>
        <time>2018-07-02T12:36:27Z</time>
      </trkpt>
      <trkpt lat="45.14038" lon="5.67159">
        <ele>451.928253</ele>
        <time>2018-07-02T12:36:45Z</time>
      </trkpt>
      <trkpt lat="45.14055" lon="5.6708">
        <ele>462.032745</ele>
        <time>2018-07-02T12:37:20Z</time>
      </trkpt>
      <trkpt lat="45.1406" lon="5.67072">
        <ele>463.059998</ele>
        <time>2018-07-02T12:37:25Z</time>
      </trkpt>
      <trkpt lat="45.14062" lon="5.67071">
        <ele>463.361237</ele>
        <time>2018-07-02T12:37:27Z</time>
      </trkpt>
      <trkpt lat="45.14143" lon="5.67116">
        <ele>465.967499</ele>
        <time>2018-07-02T12:38:15Z</time>
      </trkpt>
      <trkpt lat="45.14176" lon="5.6714">
        <ele>466.98999</ele>
        <time>2018-07-02T12:38:40Z</time>
      </trkpt>
      <trkpt lat="45.14195" lon="5.67159">
        <ele>466.611969</ele>
        <time>2018-07-02T12:38:56Z</time>
      </trkpt>
      <trkpt lat="45.14207" lon="5.67167">
        <ele>466.85083</ele>
        <time>2018-07-02T12:39:04Z</time>
      </trkpt>
      <trkpt lat="45.14225" lon="5.67156">
        <ele>469.172516</ele>
        <time>2018-07-02T12:39:16Z</time>
      </trkpt>
      <trkpt lat="45.14232" lon="5.67165">
        <ele>469.027893</ele>
        <time>2018-07-02T12:39:22Z</time>
      </trkpt>
      <trkpt lat="45.14335" lon="5.67259">
        <ele>464.397644</ele>
        <time>2018-07-02T12:40:02Z</time>
      </trkpt>
      <trkpt lat="45.14371" lon="5.67287">
        <ele>461.811432</ele>
        <time>2018-07-02T12:40:20Z</time>
      </trkpt>
      <trkpt lat="45.14374" lon="5.67287">
        <ele>461.755035</ele>
        <time>2018-07-02T12:40:32Z</time>
      </trkpt>
      <trkpt lat="45.14375" lon="5.67293">
        <ele>461.076263</ele>
        <time>2018-07-02T12:40:35Z</time>
      </trkpt>
      <trkpt lat="45.14384" lon="5.67308">
        <ele>459.212494</ele>
        <time>2018-07-02T12:40:52Z</time>
      </trkpt>
      <trkpt lat="45.14405" lon="5.67318">
        <ele>457.530701</ele>
        <time>2018-07-02T12:40:59Z</time>
      </trkpt>
      <trkpt lat="45.14491" lon="5.67335">
        <ele>451.178741</ele>
        <time>2018-07-02T12:41:15Z</time>
      </trkpt>
      <trkpt lat="45.14502" lon="5.67342">
        <ele>450.842499</ele>
        <time>2018-07-02T12:41:22Z</time>
      </trkpt>
      <trkpt lat="45.1452" lon="5.67362">
        <ele>447.920074</ele>
        <time>2018-07-02T12:41:30Z</time>
      </trkpt>
      <trkpt lat="45.1456" lon="5.67396">
        <ele>444.798645</ele>
        <time>2018-07-02T12:41:42Z</time>
      </trkpt>
      <trkpt lat="45.14577" lon="5.6742">
        <ele>440.870636</ele>
        <time>2018-07-02T12:41:50Z</time>
      </trkpt>
      <trkpt lat="45.14609" lon="5.6743">
        <ele>442.929321</ele>
        <time>2018-07-02T12:42:18Z</time>
      </trkpt>
      <trkpt lat="45.14621" lon="5.67438">
        <ele>442.9198</ele>
        <time>2018-07-02T12:42:36Z</time>
      </trkpt>
      <trkpt lat="45.14653" lon="5.67441">
        <ele>447.88681</ele>
        <time>2018-07-02T12:43:12Z</time>
      </trkpt>
      <trkpt lat="45.14678" lon="5.67455">
        <ele>446.994049</ele>
        <time>2018-07-02T12:43:30Z</time>
      </trkpt>
      <trkpt lat="45.14698" lon="5.67462">
        <ele>447.382813</ele>
        <time>2018-07-02T12:43:51Z</time>
      </trkpt>
      <trkpt lat="45.14716" lon="5.67452">
        <ele>452.299988</ele>
        <time>2018-07-02T12:44:23Z</time>
      </trkpt>
      <trkpt lat="45.14728" lon="5.67457">
        <ele>450.529999</ele>
        <time>2018-07-02T12:44:31Z</time>
      </trkpt>
      <trkpt lat="45.14746" lon="5.67461">
        <ele>449.600006</ele>
        <time>2018-07-02T12:44:39Z</time>
      </trkpt>
      <trkpt lat="45.14756" lon="5.67451">
        <ele>452.862305</ele>
        <time>2018-07-02T12:45:00Z</time>
      </trkpt>
      <trkpt lat="45.14765" lon="5.67449">
        <ele>452.745392</ele>
        <time>2018-07-02T12:45:16Z</time>
      </trkpt>
      <trkpt lat="45.14783" lon="5.67452">
        <ele>449.943909</ele>
        <time>2018-07-02T12:45:26Z</time>
      </trkpt>
      <trkpt lat="45.14807" lon="5.6745">
        <ele>448.38443</ele>
        <time>2018-07-02T12:45:36Z</time>
      </trkpt>
      <trkpt lat="45.14812" lon="5.67452">
        <ele>447.218781</ele>
        <time>2018-07-02T12:45:38Z</time>
      </trkpt>
      <trkpt lat="45.14837" lon="5.67443">
        <ele>447.91983</ele>
        <time>2018-07-02T12:45:48Z</time>
      </trkpt>
      <trkpt lat="45.14853" lon="5.6744">
        <ele>446.496124</ele>
        <time>2018-07-02T12:45:55Z</time>
      </trkpt>
      <trkpt lat="45.14874" lon="5.67432">
        <ele>445.278259</ele>
        <time>2018-07-02T12:46:05Z</time>
      </trkpt>
      <trkpt lat="45.14884" lon="5.67412">
        <ele>447.239594</ele>
        <time>2018-07-02T12:46:11Z</time>
      </trkpt>
      <trkpt lat="45.14887" lon="5.6741">
        <ele>447.057434</ele>
        <time>2018-07-02T12:46:12Z</time>
      </trkpt>
      <trkpt lat="45.14915" lon="5.67412">
        <ele>443.141022</ele>
        <time>2018-07-02T12:46:17Z</time>
      </trkpt>
      <trkpt lat="45.14951" lon="5.67406">
        <ele>441.210266</ele>
        <time>2018-07-02T12:46:23Z</time>
      </trkpt>
      <trkpt lat="45.14984" lon="5.67409">
        <ele>439.025482</ele>
        <time>2018-07-02T12:46:31Z</time>
      </trkpt>
      <trkpt lat="45.15013" lon="5.67427">
        <ele>435.404175</ele>
        <time>2018-07-02T12:46:37Z</time>
      </trkpt>
      <trkpt lat="45.15032" lon="5.67441">
        <ele>432.297485</ele>
        <time>2018-07-02T12:46:41Z</time>
      </trkpt>
      <trkpt lat="45.15061" lon="5.67449">
        <ele>432.047485</ele>
        <time>2018-07-02T12:46:49Z</time>
      </trkpt>
      <trkpt lat="45.15087" lon="5.67448">
        <ele>431.352722</ele>
        <time>2018-07-02T12:46:54Z</time>
      </trkpt>
      <trkpt lat="45.15113" lon="5.67435">
        <ele>431.817505</ele>
        <time>2018-07-02T12:46:59Z</time>
      </trkpt>
      <trkpt lat="45.15139" lon="5.67427">
        <ele>430.67749</ele>
        <time>2018-07-02T12:47:04Z</time>
      </trkpt>
      <trkpt lat="45.15145" lon="5.67423">
        <ele>430.959991</ele>
        <time>2018-07-02T12:47:06Z</time>
      </trkpt>
      <trkpt lat="45.15159" lon="5.67406">
        <ele>432.806244</ele>
        <time>2018-07-02T12:47:15Z</time>
      </trkpt>
      <trkpt lat="45.15166" lon="5.67403">
        <ele>433.830872</ele>
        <time>2018-07-02T12:47:19Z</time>
      </trkpt>
      <trkpt lat="45.15189" lon="5.67406">
        <ele>434.935486</ele>
        <time>2018-07-02T12:47:31Z</time>
      </trkpt>
      <trkpt lat="45.15209" lon="5.6742">
        <ele>432.652527</ele>
        <time>2018-07-02T12:47:44Z</time>
      </trkpt>
      <trkpt lat="45.15245" lon="5.67457">
        <ele>424.490723</ele>
        <time>2018-07-02T12:47:54Z</time>
      </trkpt>
      <trkpt lat="45.15267" lon="5.6747">
        <ele>421.345978</ele>
        <time>2018-07-02T12:47:59Z</time>
      </trkpt>
      <trkpt lat="45.15297" lon="5.67471">
        <ele>422.100983</ele>
        <time>2018-07-02T12:48:06Z</time>
      </trkpt>
      <trkpt lat="45.15337" lon="5.67467">
        <ele>422.924316</ele>
        <time>2018-07-02T12:48:21Z</time>
      </trkpt>
      <trkpt lat="45.15382" lon="5.67458">
        <ele>424.399994</ele>
        <time>2018-07-02T12:48:38Z</time>
      </trkpt>
      <trkpt lat="45.15418" lon="5.67447">
        <ele>423.57074</ele>
        <time>2018-07-02T12:48:53Z</time>
      </trkpt>
      <trkpt lat="45.1544" lon="5.6742">
        <ele>426.766174</ele>
        <time>2018-07-02T12:49:07Z</time>
      </trkpt>
      <trkpt lat="45.15458" lon="5.67387">
        <ele>426.986359</ele>
        <time>2018-07-02T12:49:20Z</time>
      </trkpt>
      <trkpt lat="45.15465" lon="5.67355">
        <ele>429.005005</ele>
        <time>2018-07-02T12:49:31Z</time>
      </trkpt>
      <trkpt lat="45.15468" lon="5.67307">
        <ele>435.740723</ele>
        <time>2018-07-02T12:49:48Z</time>
      </trkpt>
      <trkpt lat="45.15476" lon="5.67269">
        <ele>439.154999</ele>
        <time>2018-07-02T12:50:03Z</time>
      </trkpt>
      <trkpt lat="45.15489" lon="5.67237">
        <ele>440.550201</ele>
        <time>2018-07-02T12:50:17Z</time>
      </trkpt>
      <trkpt lat="45.15515" lon="5.67187">
        <ele>440.429993</ele>
        <time>2018-07-02T12:50:43Z</time>
      </trkpt>
      <trkpt lat="45.15522" lon="5.67148">
        <ele>444.688995</ele>
        <time>2018-07-02T12:51:00Z</time>
      </trkpt>
      <trkpt lat="45.15533" lon="5.67114">
        <ele>449.640015</ele>
        <time>2018-07-02T12:51:16Z</time>
      </trkpt>
      <trkpt lat="45.15553" lon="5.6709">
        <ele>452.070618</ele>
        <time>2018-07-02T12:51:33Z</time>
      </trkpt>
      <trkpt lat="45.15593" lon="5.6707">
        <ele>453.0271</ele>
        <time>2018-07-02T12:52:02Z</time>
      </trkpt>
      <trkpt lat="45.15613" lon="5.67056">
        <ele>454.790649</ele>
        <time>2018-07-02T12:52:17Z</time>
      </trkpt>
      <trkpt lat="45.15655" lon="5.67017">
        <ele>458.154999</ele>
        <time>2018-07-02T12:52:49Z</time>
      </trkpt>
      <trkpt lat="45.15683" lon="5.66988">
        <ele>460.464996</ele>
        <time>2018-07-02T12:53:08Z</time>
      </trkpt>
      <trkpt lat="45.15712" lon="5.66962">
        <ele>462.415009</ele>
        <time>2018-07-02T12:53:25Z</time>
      </trkpt>
      <trkpt lat="45.15731" lon="5.66954">
        <ele>463.820648</ele>
        <time>2018-07-02T12:53:35Z</time>
      </trkpt>
      <trkpt lat="45.15759" lon="5.66962">
        <ele>463.553314</ele>
        <time>2018-07-02T12:53:51Z</time>
      </trkpt>
      <trkpt lat="45.15784" lon="5.66983">
        <ele>460.883118</ele>
        <time>2018-07-02T12:54:08Z</time>
      </trkpt>
      <trkpt lat="45.15807" lon="5.66986">
        <ele>460.853424</ele>
        <time>2018-07-02T12:54:22Z</time>
      </trkpt>
      <trkpt lat="45.15831" lon="5.66974">
        <ele>464.066681</ele>
        <time>2018-07-02T12:54:37Z</time>
      </trkpt>
      <trkpt lat="45.1585" lon="5.66961">
        <ele>468.066559</ele>
        <time>2018-07-02T12:54:50Z</time>
      </trkpt>
      <trkpt lat="45.15872" lon="5.66955">
        <ele>472.110596</ele>
        <time>2018-07-02T12:55:03Z</time>
      </trkpt>
      <trkpt lat="45.15897" lon="5.66973">
        <ele>471.972534</ele>
        <time>2018-07-02T12:55:19Z</time>
      </trkpt>
      <trkpt lat="45.15914" lon="5.6699">
        <ele>472.929016</ele>
        <time>2018-07-02T12:55:31Z</time>
      </trkpt>
      <trkpt lat="45.15936" lon="5.67017">
        <ele>472.469208</ele>
        <time>2018-07-02T12:55:48Z</time>
      </trkpt>
      <trkpt lat="45.15953" lon="5.67044">
        <ele>471.811432</ele>
        <time>2018-07-02T12:56:04Z</time>
      </trkpt>
      <trkpt lat="45.1597" lon="5.67064">
        <ele>472.875885</ele>
        <time>2018-07-02T12:56:17Z</time>
      </trkpt>
      <trkpt lat="45.15991" lon="5.67078">
        <ele>474.66507</ele>
        <time>2018-07-02T12:56:31Z</time>
      </trkpt>
      <trkpt lat="45.16014" lon="5.6709">
        <ele>476.751404</ele>
        <time>2018-07-02T12:56:46Z</time>
      </trkpt>
      <trkpt lat="45.16037" lon="5.67097">
        <ele>478.76001</ele>
        <time>2018-07-02T12:56:59Z</time>
      </trkpt>
      <trkpt lat="45.16082" lon="5.67099">
        <ele>484.895386</ele>
        <time>2018-07-02T12:57:26Z</time>
      </trkpt>
      <trkpt lat="45.16135" lon="5.67093">
        <ele>496.658386</ele>
        <time>2018-07-02T12:58:01Z</time>
      </trkpt>
      <trkpt lat="45.16142" lon="5.67094">
        <ele>497.94751</ele>
        <time>2018-07-02T12:58:18Z</time>
      </trkpt>
      <trkpt lat="45.16163" lon="5.67111">
        <ele>499.310364</ele>
        <time>2018-07-02T12:58:36Z</time>
      </trkpt>
      <trkpt lat="45.16178" lon="5.67141">
        <ele>499.816864</ele>
        <time>2018-07-02T12:58:51Z</time>
      </trkpt>
      <trkpt lat="45.16189" lon="5.67179">
        <ele>497.98111</ele>
        <time>2018-07-02T12:59:08Z</time>
      </trkpt>
      <trkpt lat="45.16192" lon="5.67272">
        <ele>492.458466</ele>
        <time>2018-07-02T12:59:43Z</time>
      </trkpt>
      <trkpt lat="45.16208" lon="5.67304">
        <ele>493.727417</ele>
        <time>2018-07-02T12:59:56Z</time>
      </trkpt>
      <trkpt lat="45.1624" lon="5.67317">
        <ele>495.028381</ele>
        <time>2018-07-02T13:00:12Z</time>
      </trkpt>
      <trkpt lat="45.16269" lon="5.673">
        <ele>497.637939</ele>
        <time>2018-07-02T13:00:28Z</time>
      </trkpt>
      <trkpt lat="45.16285" lon="5.67268">
        <ele>503.706909</ele>
        <time>2018-07-02T13:00:44Z</time>
      </trkpt>
      <trkpt lat="45.16304" lon="5.67224">
        <ele>509.561188</ele>
        <time>2018-07-02T13:01:04Z</time>
      </trkpt>
      <trkpt lat="45.16325" lon="5.67152">
        <ele>515.348694</ele>
        <time>2018-07-02T13:01:37Z</time>
      </trkpt>
      <trkpt lat="45.16341" lon="5.67135">
        <ele>514.92218</ele>
        <time>2018-07-02T13:01:48Z</time>
      </trkpt>
      <trkpt lat="45.16358" lon="5.67127">
        <ele>514.764465</ele>
        <time>2018-07-02T13:02:01Z</time>
      </trkpt>
      <trkpt lat="45.16373" lon="5.67128">
        <ele>513.503784</ele>
        <time>2018-07-02T13:02:22Z</time>
      </trkpt>
      <trkpt lat="45.16389" lon="5.671">
        <ele>516.866821</ele>
        <time>2018-07-02T13:02:58Z</time>
      </trkpt>
      <trkpt lat="45.16401" lon="5.67072">
        <ele>522.902466</ele>
        <time>2018-07-02T13:03:31Z</time>
      </trkpt>
      <trkpt lat="45.16401" lon="5.67065">
        <ele>524.497498</ele>
        <time>2018-07-02T13:03:35Z</time>
      </trkpt>
      <trkpt lat="45.16395" lon="5.67039">
        <ele>529.940002</ele>
        <time>2018-07-02T13:03:50Z</time>
      </trkpt>
      <trkpt lat="45.16397" lon="5.67039">
        <ele>530.087524</ele>
        <time>2018-07-02T13:04:05Z</time>
      </trkpt>
      <trkpt lat="45.16395" lon="5.67031">
        <ele>531.775024</ele>
        <time>2018-07-02T13:04:12Z</time>
      </trkpt>
      <trkpt lat="45.1639" lon="5.67027">
        <ele>532.592224</ele>
        <time>2018-07-02T13:04:15Z</time>
      </trkpt>
      <trkpt lat="45.16342" lon="5.67035">
        <ele>531.85553</ele>
        <time>2018-07-02T13:04:35Z</time>
      </trkpt>
      <trkpt lat="45.16301" lon="5.6705">
        <ele>530.677368</ele>
        <time>2018-07-02T13:04:53Z</time>
      </trkpt>
      <trkpt lat="45.16267" lon="5.67048">
        <ele>529.095642</ele>
        <time>2018-07-02T13:05:07Z</time>
      </trkpt>
      <trkpt lat="45.1624" lon="5.67011">
        <ele>529.381226</ele>
        <time>2018-07-02T13:05:23Z</time>
      </trkpt>
      <trkpt lat="45.16225" lon="5.6696">
        <ele>536.451233</ele>
        <time>2018-07-02T13:05:39Z</time>
      </trkpt>
      <trkpt lat="45.16196" lon="5.66931">
        <ele>539.31897</ele>
        <time>2018-07-02T13:05:56Z</time>
      </trkpt>
      <trkpt lat="45.16161" lon="5.66912">
        <ele>539.479858</ele>
        <time>2018-07-02T13:06:13Z</time>
      </trkpt>
      <trkpt lat="45.16135" lon="5.66881">
        <ele>544.774109</ele>
        <time>2018-07-02T13:06:28Z</time>
      </trkpt>
      <trkpt lat="45.16115" lon="5.6685">
        <ele>549.546997</ele>
        <time>2018-07-02T13:06:41Z</time>
      </trkpt>
      <trkpt lat="45.16092" lon="5.66827">
        <ele>552.13562</ele>
        <time>2018-07-02T13:06:54Z</time>
      </trkpt>
      <trkpt lat="45.16052" lon="5.66798">
        <ele>553.325745</ele>
        <time>2018-07-02T13:07:20Z</time>
      </trkpt>
      <trkpt lat="45.16052" lon="5.66795">
        <ele>553.860474</ele>
        <time>2018-07-02T13:08:12Z</time>
      </trkpt>
      <trkpt lat="45.16038" lon="5.6678">
        <ele>555.088257</ele>
        <time>2018-07-02T13:08:20Z</time>
      </trkpt>
      <trkpt lat="45.16024" lon="5.66739">
        <ele>560.019409</ele>
        <time>2018-07-02T13:08:34Z</time>
      </trkpt>
      <trkpt lat="45.1602" lon="5.6672">
        <ele>561.855103</ele>
        <time>2018-07-02T13:08:40Z</time>
      </trkpt>
      <trkpt lat="45.16001" lon="5.66681">
        <ele>563.202454</ele>
        <time>2018-07-02T13:08:56Z</time>
      </trkpt>
      <trkpt lat="45.15977" lon="5.66662">
        <ele>564.41748</ele>
        <time>2018-07-02T13:09:11Z</time>
      </trkpt>
      <trkpt lat="45.15927" lon="5.66662">
        <ele>562.831848</ele>
        <time>2018-07-02T13:09:41Z</time>
      </trkpt>
      <trkpt lat="45.15908" lon="5.66654">
        <ele>564.557434</ele>
        <time>2018-07-02T13:09:53Z</time>
      </trkpt>
      <trkpt lat="45.15889" lon="5.66633">
        <ele>566.745239</ele>
        <time>2018-07-02T13:10:07Z</time>
      </trkpt>
      <trkpt lat="45.15829" lon="5.66556">
        <ele>570.038147</ele>
        <time>2018-07-02T13:10:50Z</time>
      </trkpt>
      <trkpt lat="45.1579" lon="5.66495">
        <ele>574.298706</ele>
        <time>2018-07-02T13:11:24Z</time>
      </trkpt>
      <trkpt lat="45.15774" lon="5.66456">
        <ele>579.191467</ele>
        <time>2018-07-02T13:11:50Z</time>
      </trkpt>
      <trkpt lat="45.15753" lon="5.66419">
        <ele>582.557495</ele>
        <time>2018-07-02T13:12:08Z</time>
      </trkpt>
      <trkpt lat="45.15719" lon="5.66397">
        <ele>581.08313</ele>
        <time>2018-07-02T13:12:26Z</time>
      </trkpt>
      <trkpt lat="45.15705" lon="5.66359">
        <ele>586.036743</ele>
        <time>2018-07-02T13:12:41Z</time>
      </trkpt>
      <trkpt lat="45.15717" lon="5.66326">
        <ele>594.5</ele>
        <time>2018-07-02T13:12:56Z</time>
      </trkpt>
      <trkpt lat="45.15739" lon="5.66311">
        <ele>600.383545</ele>
        <time>2018-07-02T13:13:10Z</time>
      </trkpt>
      <trkpt lat="45.15747" lon="5.66309">
        <ele>601.820313</ele>
        <time>2018-07-02T13:13:15Z</time>
      </trkpt>
      <trkpt lat="45.15775" lon="5.66318">
        <ele>603.77179</ele>
        <time>2018-07-02T13:13:36Z</time>
      </trkpt>
      <trkpt lat="45.15799" lon="5.66395">
        <ele>594.212463</ele>
        <time>2018-07-02T13:13:55Z</time>
      </trkpt>
      <trkpt lat="45.15814" lon="5.66419">
        <ele>592.658752</ele>
        <time>2018-07-02T13:14:12Z</time>
      </trkpt>
      <trkpt lat="45.15852" lon="5.66447">
        <ele>591.089783</ele>
        <time>2018-07-02T13:14:28Z</time>
      </trkpt>
      <trkpt lat="45.1589" lon="5.66447">
        <ele>593.814575</ele>
        <time>2018-07-02T13:14:46Z</time>
      </trkpt>
      <trkpt lat="45.15904" lon="5.66456">
        <ele>593.240662</ele>
        <time>2018-07-02T13:14:55Z</time>
      </trkpt>
      <trkpt lat="45.15916" lon="5.66468">
        <ele>592.227478</ele>
        <time>2018-07-02T13:15:03Z</time>
      </trkpt>
      <trkpt lat="45.15921" lon="5.66469">
        <ele>592.440002</ele>
        <time>2018-07-02T13:15:16Z</time>
      </trkpt>
      <trkpt lat="45.15922" lon="5.66472">
        <ele>592.077515</ele>
        <time>2018-07-02T13:15:48Z</time>
      </trkpt>
      <trkpt lat="45.15918" lon="5.66471">
        <ele>591.977539</ele>
        <time>2018-07-02T13:16:18Z</time>
      </trkpt>
      <trkpt lat="45.15902" lon="5.66451">
        <ele>593.813904</ele>
        <time>2018-07-02T13:16:33Z</time>
      </trkpt>
      <trkpt lat="45.15905" lon="5.66443">
        <ele>595.227966</ele>
        <time>2018-07-02T13:16:38Z</time>
      </trkpt>
      <trkpt lat="45.15956" lon="5.6643">
        <ele>601.325012</ele>
        <time>2018-07-02T13:17:08Z</time>
      </trkpt>
      <trkpt lat="45.15959" lon="5.66433">
        <ele>601.263794</ele>
        <time>2018-07-02T13:17:18Z</time>
      </trkpt>
      <trkpt lat="45.15984" lon="5.66441">
        <ele>603.193542</ele>
        <time>2018-07-02T13:17:30Z</time>
      </trkpt>
      <trkpt lat="45.16008" lon="5.66466">
        <ele>604.122498</ele>
        <time>2018-07-02T13:17:44Z</time>
      </trkpt>
      <trkpt lat="45.16033" lon="5.66497">
        <ele>605.587524</ele>
        <time>2018-07-02T13:18:00Z</time>
      </trkpt>
      <trkpt lat="45.16059" lon="5.66516">
        <ele>606.755005</ele>
        <time>2018-07-02T13:18:33Z</time>
      </trkpt>
      <trkpt lat="45.16114" lon="5.66539">
        <ele>613.069519</ele>
        <time>2018-07-02T13:19:11Z</time>
      </trkpt>
      <trkpt lat="45.16136" lon="5.66555">
        <ele>614.14502</ele>
        <time>2018-07-02T13:19:26Z</time>
      </trkpt>
      <trkpt lat="45.16165" lon="5.66595">
        <ele>611.569153</ele>
        <time>2018-07-02T13:19:54Z</time>
      </trkpt>
      <trkpt lat="45.16272" lon="5.66644">
        <ele>620.503784</ele>
        <time>2018-07-02T13:21:05Z</time>
      </trkpt>
      <trkpt lat="45.16296" lon="5.66659">
        <ele>621.423828</ele>
        <time>2018-07-02T13:21:20Z</time>
      </trkpt>
      <trkpt lat="45.16331" lon="5.66694">
        <ele>620.669678</ele>
        <time>2018-07-02T13:21:51Z</time>
      </trkpt>
      <trkpt lat="45.16359" lon="5.66711">
        <ele>622.768311</ele>
        <time>2018-07-02T13:22:11Z</time>
      </trkpt>
      <trkpt lat="45.16386" lon="5.66714">
        <ele>626.556885</ele>
        <time>2018-07-02T13:22:29Z</time>
      </trkpt>
      <trkpt lat="45.16423" lon="5.66702">
        <ele>634.162231</ele>
        <time>2018-07-02T13:22:54Z</time>
      </trkpt>
      <trkpt lat="45.1648" lon="5.66704">
        <ele>637.246948</ele>
        <time>2018-07-02T13:23:29Z</time>
      </trkpt>
      <trkpt lat="45.16552" lon="5.66687">
        <ele>640.763611</ele>
        <time>2018-07-02T13:24:16Z</time>
      </trkpt>
      <trkpt lat="45.1657" lon="5.66668">
        <ele>643.283875</ele>
        <time>2018-07-02T13:24:30Z</time>
      </trkpt>
      <trkpt lat="45.16581" lon="5.66637">
        <ele>649.012878</ele>
        <time>2018-07-02T13:24:46Z</time>
      </trkpt>
      <trkpt lat="45.16591" lon="5.66597">
        <ele>655.262512</ele>
        <time>2018-07-02T13:25:04Z</time>
      </trkpt>
      <trkpt lat="45.16607" lon="5.66571">
        <ele>656.143677</ele>
        <time>2018-07-02T13:25:18Z</time>
      </trkpt>
      <trkpt lat="45.16617" lon="5.66561">
        <ele>655.625488</ele>
        <time>2018-07-02T13:25:25Z</time>
      </trkpt>
      <trkpt lat="45.16637" lon="5.6655">
        <ele>654.337585</ele>
        <time>2018-07-02T13:25:39Z</time>
      </trkpt>
      <trkpt lat="45.16681" lon="5.66536">
        <ele>654.196777</ele>
        <time>2018-07-02T13:26:06Z</time>
      </trkpt>
      <trkpt lat="45.16702" lon="5.66533">
        <ele>655.520508</ele>
        <time>2018-07-02T13:26:19Z</time>
      </trkpt>
      <trkpt lat="45.1673" lon="5.6652">
        <ele>661.551331</ele>
        <time>2018-07-02T13:26:36Z</time>
      </trkpt>
      <trkpt lat="45.16749" lon="5.66521">
        <ele>663.98645</ele>
        <time>2018-07-02T13:26:48Z</time>
      </trkpt>
      <trkpt lat="45.16773" lon="5.66548">
        <ele>662.101013</ele>
        <time>2018-07-02T13:27:05Z</time>
      </trkpt>
      <trkpt lat="45.16791" lon="5.66578">
        <ele>658.869324</ele>
        <time>2018-07-02T13:27:20Z</time>
      </trkpt>
      <trkpt lat="45.16813" lon="5.66602">
        <ele>657.803894</ele>
        <time>2018-07-02T13:27:35Z</time>
      </trkpt>
      <trkpt lat="45.16843" lon="5.66606">
        <ele>663.222473</ele>
        <time>2018-07-02T13:28:01Z</time>
      </trkpt>
      <trkpt lat="45.1684" lon="5.66607">
        <ele>662.157898</ele>
        <time>2018-07-02T13:28:29Z</time>
      </trkpt>
      <trkpt lat="45.16842" lon="5.66605">
        <ele>663.470276</ele>
        <time>2018-07-02T13:28:52Z</time>
      </trkpt>
      <trkpt lat="45.16845" lon="5.66605">
        <ele>664.100708</ele>
        <time>2018-07-02T13:29:11Z</time>
      </trkpt>
      <trkpt lat="45.16866" lon="5.66593">
        <ele>670.256653</ele>
        <time>2018-07-02T13:29:52Z</time>
      </trkpt>
      <trkpt lat="45.16885" lon="5.66586">
        <ele>674.385681</ele>
        <time>2018-07-02T13:30:04Z</time>
      </trkpt>
      <trkpt lat="45.16928" lon="5.66596">
        <ele>672.253845</ele>
        <time>2018-07-02T13:30:29Z</time>
      </trkpt>
      <trkpt lat="45.16947" lon="5.66593">
        <ele>673.285095</ele>
        <time>2018-07-02T13:30:40Z</time>
      </trkpt>
      <trkpt lat="45.16988" lon="5.66565">
        <ele>681.715515</ele>
        <time>2018-07-02T13:31:06Z</time>
      </trkpt>
      <trkpt lat="45.17016" lon="5.66543">
        <ele>682.287292</ele>
        <time>2018-07-02T13:31:19Z</time>
      </trkpt>
      <trkpt lat="45.17056" lon="5.66491">
        <ele>685.940613</ele>
        <time>2018-07-02T13:31:44Z</time>
      </trkpt>
      <trkpt lat="45.17062" lon="5.66487">
        <ele>684.450439</ele>
        <time>2018-07-02T13:32:02Z</time>
      </trkpt>
      <trkpt lat="45.1711" lon="5.66489">
        <ele>670.013733</ele>
        <time>2018-07-02T13:32:49Z</time>
      </trkpt>
      <trkpt lat="45.17114" lon="5.66494">
        <ele>667.184998</ele>
        <time>2018-07-02T13:32:53Z</time>
      </trkpt>
      <trkpt lat="45.17116" lon="5.66536">
        <ele>657.219482</ele>
        <time>2018-07-02T13:33:13Z</time>
      </trkpt>
      <trkpt lat="45.17113" lon="5.66562">
        <ele>652.030273</ele>
        <time>2018-07-02T13:33:20Z</time>
      </trkpt>
      <trkpt lat="45.17101" lon="5.66597">
        <ele>649.780884</ele>
        <time>2018-07-02T13:33:30Z</time>
      </trkpt>
      <trkpt lat="45.17107" lon="5.66624">
        <ele>646.894104</ele>
        <time>2018-07-02T13:33:36Z</time>
      </trkpt>
      <trkpt lat="45.17133" lon="5.6667">
        <ele>637.815491</ele>
        <time>2018-07-02T13:33:48Z</time>
      </trkpt>
      <trkpt lat="45.17138" lon="5.66684">
        <ele>635.866516</ele>
        <time>2018-07-02T13:33:51Z</time>
      </trkpt>
      <trkpt lat="45.17143" lon="5.66692">
        <ele>635.235168</ele>
        <time>2018-07-02T13:33:53Z</time>
      </trkpt>
      <trkpt lat="45.17149" lon="5.66691">
        <ele>635.56189</ele>
        <time>2018-07-02T13:33:55Z</time>
      </trkpt>
      <trkpt lat="45.17154" lon="5.66684">
        <ele>636.241577</ele>
        <time>2018-07-02T13:33:57Z</time>
      </trkpt>
      <trkpt lat="45.17157" lon="5.66668">
        <ele>637.287781</ele>
        <time>2018-07-02T13:34:02Z</time>
      </trkpt>
      <trkpt lat="45.17164" lon="5.66667">
        <ele>636.821838</ele>
        <time>2018-07-02T13:34:08Z</time>
      </trkpt>
      <trkpt lat="45.17166" lon="5.66693">
        <ele>635.514587</ele>
        <time>2018-07-02T13:34:17Z</time>
      </trkpt>
      <trkpt lat="45.1717" lon="5.66694">
        <ele>635.210693</ele>
        <time>2018-07-02T13:34:19Z</time>
      </trkpt>
      <trkpt lat="45.17175" lon="5.66691">
        <ele>634.52832</ele>
        <time>2018-07-02T13:34:58Z</time>
      </trkpt>
      <trkpt lat="45.17172" lon="5.66687">
        <ele>634.911255</ele>
        <time>2018-07-02T13:36:07Z</time>
      </trkpt>
      <trkpt lat="45.17174" lon="5.66662">
        <ele>635.348694</ele>
        <time>2018-07-02T13:36:20Z</time>
      </trkpt>
      <trkpt lat="45.1718" lon="5.66633">
        <ele>635.074524</ele>
        <time>2018-07-02T13:36:24Z</time>
      </trkpt>
      <trkpt lat="45.1719" lon="5.66599">
        <ele>634.127502</ele>
        <time>2018-07-02T13:36:29Z</time>
      </trkpt>
      <trkpt lat="45.17203" lon="5.66533">
        <ele>638.443909</ele>
        <time>2018-07-02T13:36:42Z</time>
      </trkpt>
      <trkpt lat="45.17221" lon="5.66511">
        <ele>638.398865</ele>
        <time>2018-07-02T13:36:54Z</time>
      </trkpt>
      <trkpt lat="45.17254" lon="5.66492">
        <ele>637.775146</ele>
        <time>2018-07-02T13:37:10Z</time>
      </trkpt>
      <trkpt lat="45.17333" lon="5.66471">
        <ele>636.162048</ele>
        <time>2018-07-02T13:37:38Z</time>
      </trkpt>
      <trkpt lat="45.17337" lon="5.66463">
        <ele>636.54187</ele>
        <time>2018-07-02T13:37:41Z</time>
      </trkpt>
      <trkpt lat="45.17335" lon="5.66439">
        <ele>640.434387</ele>
        <time>2018-07-02T13:37:45Z</time>
      </trkpt>
      <trkpt lat="45.17337" lon="5.66427">
        <ele>641.332886</ele>
        <time>2018-07-02T13:37:48Z</time>
      </trkpt>
      <trkpt lat="45.17349" lon="5.66413">
        <ele>639.456421</ele>
        <time>2018-07-02T13:37:54Z</time>
      </trkpt>
      <trkpt lat="45.17387" lon="5.66382">
        <ele>638.521179</ele>
        <time>2018-07-02T13:38:23Z</time>
      </trkpt>
      <trkpt lat="45.17381" lon="5.66389">
        <ele>637.68103</ele>
        <time>2018-07-02T13:38:41Z</time>
      </trkpt>
      <trkpt lat="45.17401" lon="5.66368">
        <ele>641.674561</ele>
        <time>2018-07-02T13:39:06Z</time>
      </trkpt>
      <trkpt lat="45.17424" lon="5.66378">
        <ele>641.707703</ele>
        <time>2018-07-02T13:39:21Z</time>
      </trkpt>
      <trkpt lat="45.1746" lon="5.66404">
        <ele>639.410278</ele>
        <time>2018-07-02T13:39:40Z</time>
      </trkpt>
      <trkpt lat="45.17491" lon="5.66407">
        <ele>639.447571</ele>
        <time>2018-07-02T13:39:54Z</time>
      </trkpt>
      <trkpt lat="45.17526" lon="5.66394">
        <ele>640.440796</ele>
        <time>2018-07-02T13:40:07Z</time>
      </trkpt>
      <trkpt lat="45.17578" lon="5.66368">
        <ele>633.412537</ele>
        <time>2018-07-02T13:40:18Z</time>
      </trkpt>
      <trkpt lat="45.17594" lon="5.66344">
        <ele>633.460022</ele>
        <time>2018-07-02T13:40:24Z</time>
      </trkpt>
      <trkpt lat="45.17607" lon="5.66312">
        <ele>633.65564</ele>
        <time>2018-07-02T13:40:30Z</time>
      </trkpt>
      <trkpt lat="45.17613" lon="5.66305">
        <ele>633.428772</ele>
        <time>2018-07-02T13:40:32Z</time>
      </trkpt>
      <trkpt lat="45.17641" lon="5.66297">
        <ele>634.704651</ele>
        <time>2018-07-02T13:40:41Z</time>
      </trkpt>
      <trkpt lat="45.17677" lon="5.66301">
        <ele>637.114746</ele>
        <time>2018-07-02T13:40:55Z</time>
      </trkpt>
      <trkpt lat="45.17709" lon="5.663">
        <ele>639.911133</ele>
        <time>2018-07-02T13:41:06Z</time>
      </trkpt>
      <trkpt lat="45.17738" lon="5.6629">
        <ele>641.585327</ele>
        <time>2018-07-02T13:41:17Z</time>
      </trkpt>
      <trkpt lat="45.17786" lon="5.66338">
        <ele>637.178772</ele>
        <time>2018-07-02T13:41:35Z</time>
      </trkpt>
      <trkpt lat="45.17807" lon="5.66333">
        <ele>636.483765</ele>
        <time>2018-07-02T13:41:39Z</time>
      </trkpt>
      <trkpt lat="45.17818" lon="5.66335">
        <ele>634.567505</ele>
        <time>2018-07-02T13:41:41Z</time>
      </trkpt>
      <trkpt lat="45.1785" lon="5.66331">
        <ele>629.97876</ele>
        <time>2018-07-02T13:41:50Z</time>
      </trkpt>
      <trkpt lat="45.17881" lon="5.6629">
        <ele>628.111084</ele>
        <time>2018-07-02T13:42:03Z</time>
      </trkpt>
      <trkpt lat="45.17893" lon="5.66279">
        <ele>626.585022</ele>
        <time>2018-07-02T13:42:06Z</time>
      </trkpt>
      <trkpt lat="45.17916" lon="5.66272">
        <ele>624.326599</ele>
        <time>2018-07-02T13:42:10Z</time>
      </trkpt>
      <trkpt lat="45.17935" lon="5.66275">
        <ele>621.963806</ele>
        <time>2018-07-02T13:42:16Z</time>
      </trkpt>
      <trkpt lat="45.17954" lon="5.6629">
        <ele>619.678955</ele>
        <time>2018-07-02T13:42:22Z</time>
      </trkpt>
      <trkpt lat="45.17969" lon="5.66308">
        <ele>617.37262</ele>
        <time>2018-07-02T13:42:26Z</time>
      </trkpt>
      <trkpt lat="45.17974" lon="5.66309">
        <ele>616.822266</ele>
        <time>2018-07-02T13:42:28Z</time>
      </trkpt>
      <trkpt lat="45.17979" lon="5.66304">
        <ele>616.879395</ele>
        <time>2018-07-02T13:42:30Z</time>
      </trkpt>
      <trkpt lat="45.17976" lon="5.66277">
        <ele>617.968567</ele>
        <time>2018-07-02T13:42:34Z</time>
      </trkpt>
      <trkpt lat="45.17982" lon="5.66232">
        <ele>618.301025</ele>
        <time>2018-07-02T13:42:40Z</time>
      </trkpt>
      <trkpt lat="45.17976" lon="5.66184">
        <ele>619.279907</ele>
        <time>2018-07-02T13:42:46Z</time>
      </trkpt>
      <trkpt lat="45.17977" lon="5.66168">
        <ele>619.273438</ele>
        <time>2018-07-02T13:42:49Z</time>
      </trkpt>
      <trkpt lat="45.17981" lon="5.6616">
        <ele>619.068115</ele>
        <time>2018-07-02T13:42:51Z</time>
      </trkpt>
      <trkpt lat="45.17982" lon="5.66151">
        <ele>619.198669</ele>
        <time>2018-07-02T13:42:53Z</time>
      </trkpt>
      <trkpt lat="45.17996" lon="5.66124">
        <ele>618.527527</ele>
        <time>2018-07-02T13:43:02Z</time>
      </trkpt>
      <trkpt lat="45.18019" lon="5.66042">
        <ele>620.875732</ele>
        <time>2018-07-02T13:43:27Z</time>
      </trkpt>
      <trkpt lat="45.18027" lon="5.66023">
        <ele>621.116333</ele>
        <time>2018-07-02T13:43:36Z</time>
      </trkpt>
      <trkpt lat="45.18052" lon="5.66016">
        <ele>618.283569</ele>
        <time>2018-07-02T13:43:48Z</time>
      </trkpt>
      <trkpt lat="45.18054" lon="5.6602">
        <ele>617.968506</ele>
        <time>2018-07-02T13:44:02Z</time>
      </trkpt>
      <trkpt lat="45.18072" lon="5.66022">
        <ele>615.524048</ele>
        <time>2018-07-02T13:44:23Z</time>
      </trkpt>
      <trkpt lat="45.18098" lon="5.66008">
        <ele>612.435242</ele>
        <time>2018-07-02T13:44:28Z</time>
      </trkpt>
      <trkpt lat="45.18132" lon="5.65976">
        <ele>607.429382</ele>
        <time>2018-07-02T13:44:36Z</time>
      </trkpt>
      <trkpt lat="45.18146" lon="5.65958">
        <ele>605.292419</ele>
        <time>2018-07-02T13:45:42Z</time>
      </trkpt>
      <trkpt lat="45.18168" lon="5.65938">
        <ele>601.368408</ele>
        <time>2018-07-02T13:45:57Z</time>
      </trkpt>
      <trkpt lat="45.18183" lon="5.65939">
        <ele>598.426453</ele>
        <time>2018-07-02T13:46:00Z</time>
      </trkpt>
      <trkpt lat="45.18209" lon="5.65956">
        <ele>593.414856</ele>
        <time>2018-07-02T13:46:06Z</time>
      </trkpt>
      <trkpt lat="45.18246" lon="5.66017">
        <ele>584.565002</ele>
        <time>2018-07-02T13:46:18Z</time>
      </trkpt>
      <trkpt lat="45.18256" lon="5.6604">
        <ele>581.950012</ele>
        <time>2018-07-02T13:46:22Z</time>
      </trkpt>
      <trkpt lat="45.18263" lon="5.66062">
        <ele>580.362488</ele>
        <time>2018-07-02T13:46:26Z</time>
      </trkpt>
      <trkpt lat="45.1827" lon="5.66071">
        <ele>578.86499</ele>
        <time>2018-07-02T13:46:28Z</time>
      </trkpt>
      <trkpt lat="45.18286" lon="5.66081">
        <ele>575.182495</ele>
        <time>2018-07-02T13:46:32Z</time>
      </trkpt>
      <trkpt lat="45.18304" lon="5.66098">
        <ele>571.015686</ele>
        <time>2018-07-02T13:46:39Z</time>
      </trkpt>
      <trkpt lat="45.18313" lon="5.66123">
        <ele>569.070862</ele>
        <time>2018-07-02T13:46:44Z</time>
      </trkpt>
      <trkpt lat="45.1831" lon="5.66146">
        <ele>570.461243</ele>
        <time>2018-07-02T13:46:47Z</time>
      </trkpt>
      <trkpt lat="45.18315" lon="5.66169">
        <ele>568.512512</ele>
        <time>2018-07-02T13:46:53Z</time>
      </trkpt>
      <trkpt lat="45.18322" lon="5.66165">
        <ele>565.778015</ele>
        <time>2018-07-02T13:46:56Z</time>
      </trkpt>
      <trkpt lat="45.18342" lon="5.66124">
        <ele>560.785522</ele>
        <time>2018-07-02T13:47:10Z</time>
      </trkpt>
      <trkpt lat="45.18357" lon="5.66087">
        <ele>557.377563</ele>
        <time>2018-07-02T13:47:16Z</time>
      </trkpt>
      <trkpt lat="45.1838" lon="5.66047">
        <ele>549.079712</ele>
        <time>2018-07-02T13:47:27Z</time>
      </trkpt>
      <trkpt lat="45.18384" lon="5.66023">
        <ele>544.419434</ele>
        <time>2018-07-02T13:47:32Z</time>
      </trkpt>
      <trkpt lat="45.18383" lon="5.65976">
        <ele>546.032532</ele>
        <time>2018-07-02T13:47:39Z</time>
      </trkpt>
      <trkpt lat="45.18385" lon="5.65973">
        <ele>545.780029</ele>
        <time>2018-07-02T13:47:40Z</time>
      </trkpt>
      <trkpt lat="45.18387" lon="5.65973">
        <ele>544.831238</ele>
        <time>2018-07-02T13:47:41Z</time>
      </trkpt>
      <trkpt lat="45.18394" lon="5.65985">
        <ele>540.851257</ele>
        <time>2018-07-02T13:47:44Z</time>
      </trkpt>
      <trkpt lat="45.18408" lon="5.66023">
        <ele>536.588074</ele>
        <time>2018-07-02T13:47:50Z</time>
      </trkpt>
      <trkpt lat="45.18411" lon="5.66054">
        <ele>539.818542</ele>
        <time>2018-07-02T13:47:55Z</time>
      </trkpt>
      <trkpt lat="45.18413" lon="5.6606">
        <ele>539.911011</ele>
        <time>2018-07-02T13:47:57Z</time>
      </trkpt>
      <trkpt lat="45.18418" lon="5.6606">
        <ele>538.286438</ele>
        <time>2018-07-02T13:47:59Z</time>
      </trkpt>
      <trkpt lat="45.18424" lon="5.66031">
        <ele>532.861694</ele>
        <time>2018-07-02T13:48:05Z</time>
      </trkpt>
      <trkpt lat="45.18425" lon="5.66019">
        <ele>531.241821</ele>
        <time>2018-07-02T13:48:07Z</time>
      </trkpt>
      <trkpt lat="45.18419" lon="5.6599">
        <ele>533.06665</ele>
        <time>2018-07-02T13:48:12Z</time>
      </trkpt>
      <trkpt lat="45.18423" lon="5.65974">
        <ele>534.278442</ele>
        <time>2018-07-02T13:48:15Z</time>
      </trkpt>
      <trkpt lat="45.18433" lon="5.65964">
        <ele>532.952148</ele>
        <time>2018-07-02T13:48:18Z</time>
      </trkpt>
      <trkpt lat="45.18446" lon="5.65959">
        <ele>530.505493</ele>
        <time>2018-07-02T13:48:21Z</time>
      </trkpt>
      <trkpt lat="45.1846" lon="5.65962">
        <ele>528.2005</ele>
        <time>2018-07-02T13:48:26Z</time>
      </trkpt>
      <trkpt lat="45.18473" lon="5.65983">
        <ele>522.465332</ele>
        <time>2018-07-02T13:48:32Z</time>
      </trkpt>
      <trkpt lat="45.18482" lon="5.66009">
        <ele>515.992859</ele>
        <time>2018-07-02T13:48:37Z</time>
      </trkpt>
      <trkpt lat="45.18495" lon="5.66029">
        <ele>514.291382</ele>
        <time>2018-07-02T13:48:41Z</time>
      </trkpt>
      <trkpt lat="45.1852" lon="5.66086">
        <ele>509.819794</ele>
        <time>2018-07-02T13:48:50Z</time>
      </trkpt>
      <trkpt lat="45.18532" lon="5.66119">
        <ele>505.0979</ele>
        <time>2018-07-02T13:48:56Z</time>
      </trkpt>
      <trkpt lat="45.18551" lon="5.66145">
        <ele>498.930145</ele>
        <time>2018-07-02T13:49:07Z</time>
      </trkpt>
      <trkpt lat="45.18561" lon="5.66167">
        <ele>493.521698</ele>
        <time>2018-07-02T13:49:11Z</time>
      </trkpt>
      <trkpt lat="45.18571" lon="5.66204">
        <ele>488.029785</ele>
        <time>2018-07-02T13:49:19Z</time>
      </trkpt>
      <trkpt lat="45.18585" lon="5.66233">
        <ele>485.753326</ele>
        <time>2018-07-02T13:49:27Z</time>
      </trkpt>
      <trkpt lat="45.18595" lon="5.66264">
        <ele>484.454193</ele>
        <time>2018-07-02T13:49:33Z</time>
      </trkpt>
      <trkpt lat="45.18598" lon="5.66285">
        <ele>482.587494</ele>
        <time>2018-07-02T13:49:36Z</time>
      </trkpt>
      <trkpt lat="45.18601" lon="5.66297">
        <ele>481.692505</ele>
        <time>2018-07-02T13:49:38Z</time>
      </trkpt>
      <trkpt lat="45.18606" lon="5.66304">
        <ele>481.684998</ele>
        <time>2018-07-02T13:49:40Z</time>
      </trkpt>
      <trkpt lat="45.18616" lon="5.66306">
        <ele>482.658905</ele>
        <time>2018-07-02T13:49:43Z</time>
      </trkpt>
      <trkpt lat="45.18663" lon="5.66293">
        <ele>484.921997</ele>
        <time>2018-07-02T13:50:10Z</time>
      </trkpt>
      <trkpt lat="45.18684" lon="5.66302">
        <ele>482.969391</ele>
        <time>2018-07-02T13:50:20Z</time>
      </trkpt>
      <trkpt lat="45.18702" lon="5.66318">
        <ele>480.748047</ele>
        <time>2018-07-02T13:50:29Z</time>
      </trkpt>
      <trkpt lat="45.18724" lon="5.66327">
        <ele>476.125702</ele>
        <time>2018-07-02T13:50:38Z</time>
      </trkpt>
      <trkpt lat="45.18734" lon="5.66323">
        <ele>474.615326</ele>
        <time>2018-07-02T13:50:44Z</time>
      </trkpt>
      <trkpt lat="45.18746" lon="5.66315">
        <ele>473.719269</ele>
        <time>2018-07-02T13:50:50Z</time>
      </trkpt>
      <trkpt lat="45.18771" lon="5.66303">
        <ele>470.410004</ele>
        <time>2018-07-02T13:50:59Z</time>
      </trkpt>
      <trkpt lat="45.18814" lon="5.66269">
        <ele>466.722504</ele>
        <time>2018-07-02T13:51:13Z</time>
      </trkpt>
      <trkpt lat="45.18824" lon="5.6627">
        <ele>465.457489</ele>
        <time>2018-07-02T13:51:16Z</time>
      </trkpt>
      <trkpt lat="45.18847" lon="5.66297">
        <ele>460.782166</ele>
        <time>2018-07-02T13:51:23Z</time>
      </trkpt>
      <trkpt lat="45.18887" lon="5.66317">
        <ele>455.311951</ele>
        <time>2018-07-02T13:51:32Z</time>
      </trkpt>
      <trkpt lat="45.18897" lon="5.66335">
        <ele>453.179779</ele>
        <time>2018-07-02T13:51:39Z</time>
      </trkpt>
      <trkpt lat="45.18896" lon="5.66346">
        <ele>452.433807</ele>
        <time>2018-07-02T13:51:41Z</time>
      </trkpt>
      <trkpt lat="45.18878" lon="5.66383">
        <ele>449.485931</ele>
        <time>2018-07-02T13:51:56Z</time>
      </trkpt>
      <trkpt lat="45.18877" lon="5.66414">
        <ele>445.987488</ele>
        <time>2018-07-02T13:52:05Z</time>
      </trkpt>
      <trkpt lat="45.18879" lon="5.66435">
        <ele>442.716675</ele>
        <time>2018-07-02T13:52:12Z</time>
      </trkpt>
      <trkpt lat="45.18884" lon="5.66449">
        <ele>440.022064</ele>
        <time>2018-07-02T13:52:18Z</time>
      </trkpt>
      <trkpt lat="45.1889" lon="5.66454">
        <ele>438.827881</ele>
        <time>2018-07-02T13:52:20Z</time>
      </trkpt>
      <trkpt lat="45.18899" lon="5.66466">
        <ele>436.254364</ele>
        <time>2018-07-02T13:52:23Z</time>
      </trkpt>
      <trkpt lat="45.189" lon="5.66475">
        <ele>434.712036</ele>
        <time>2018-07-02T13:52:25Z</time>
      </trkpt>
      <trkpt lat="45.18897" lon="5.66484">
        <ele>433.558746</ele>
        <time>2018-07-02T13:52:28Z</time>
      </trkpt>
      <trkpt lat="45.18897" lon="5.66489">
        <ele>432.743744</ele>
        <time>2018-07-02T13:52:42Z</time>
      </trkpt>
      <trkpt lat="45.18894" lon="5.66492">
        <ele>432.658752</ele>
        <time>2018-07-02T13:53:00Z</time>
      </trkpt>
      <trkpt lat="45.18872" lon="5.66482">
        <ele>435.2789</ele>
        <time>2018-07-02T13:53:16Z</time>
      </trkpt>
      <trkpt lat="45.18856" lon="5.6648">
        <ele>435.548645</ele>
        <time>2018-07-02T13:53:22Z</time>
      </trkpt>
      <trkpt lat="45.18851" lon="5.66483">
        <ele>435.208832</ele>
        <time>2018-07-02T13:53:24Z</time>
      </trkpt>
      <trkpt lat="45.18835" lon="5.66543">
        <ele>429.227203</ele>
        <time>2018-07-02T13:53:36Z</time>
      </trkpt>
      <trkpt lat="45.18816" lon="5.66574">
        <ele>427.346161</ele>
        <time>2018-07-02T13:53:48Z</time>
      </trkpt>
      <trkpt lat="45.18813" lon="5.66583">
        <ele>426.754852</ele>
        <time>2018-07-02T13:53:52Z</time>
      </trkpt>
      <trkpt lat="45.18799" lon="5.66676">
        <ele>414.862488</ele>
        <time>2018-07-02T13:54:08Z</time>
      </trkpt>
      <trkpt lat="45.18799" lon="5.66718">
        <ele>407.505005</ele>
        <time>2018-07-02T13:54:17Z</time>
      </trkpt>
      <trkpt lat="45.18825" lon="5.66797">
        <ele>388.601501</ele>
        <time>2018-07-02T13:54:37Z</time>
      </trkpt>
      <trkpt lat="45.18825" lon="5.66805">
        <ele>386.979645</ele>
        <time>2018-07-02T13:54:38Z</time>
      </trkpt>
      <trkpt lat="45.1881" lon="5.66867">
        <ele>378.806091</ele>
        <time>2018-07-02T13:54:55Z</time>
      </trkpt>
      <trkpt lat="45.18791" lon="5.66912">
        <ele>382.76651</ele>
        <time>2018-07-02T13:55:18Z</time>
      </trkpt>
      <trkpt lat="45.18781" lon="5.6694">
        <ele>390.933502</ele>
        <time>2018-07-02T13:55:34Z</time>
      </trkpt>
      <trkpt lat="45.18761" lon="5.66954">
        <ele>395.817261</ele>
        <time>2018-07-02T13:55:49Z</time>
      </trkpt>
      <trkpt lat="45.18739" lon="5.66952">
        <ele>394.369904</ele>
        <time>2018-07-02T13:56:05Z</time>
      </trkpt>
      <trkpt lat="45.18722" lon="5.66963">
        <ele>398.171448</ele>
        <time>2018-07-02T13:56:16Z</time>
      </trkpt>
      <trkpt lat="45.18698" lon="5.66991">
        <ele>399.873474</ele>
        <time>2018-07-02T13:56:36Z</time>
      </trkpt>
      <trkpt lat="45.18691" lon="5.66992">
        <ele>398.779999</ele>
        <time>2018-07-02T13:57:18Z</time>
      </trkpt>
      <trkpt lat="45.18688" lon="5.67003">
        <ele>398.947998</ele>
        <time>2018-07-02T13:57:31Z</time>
      </trkpt>
      <trkpt lat="45.18692" lon="5.6702">
        <ele>400.244568</ele>
        <time>2018-07-02T13:57:52Z</time>
      </trkpt>
      <trkpt lat="45.18696" lon="5.67073">
        <ele>399.167175</ele>
        <time>2018-07-02T13:58:05Z</time>
      </trkpt>
      <trkpt lat="45.18695" lon="5.67165">
        <ele>392.573761</ele>
        <time>2018-07-02T13:58:16Z</time>
      </trkpt>
      <trkpt lat="45.18698" lon="5.67177">
        <ele>390.993744</ele>
        <time>2018-07-02T13:58:18Z</time>
      </trkpt>
      <trkpt lat="45.18702" lon="5.67181">
        <ele>390.272491</ele>
        <time>2018-07-02T13:58:19Z</time>
      </trkpt>
      <trkpt lat="45.18728" lon="5.67185">
        <ele>387.821259</ele>
        <time>2018-07-02T13:58:24Z</time>
      </trkpt>
      <trkpt lat="45.18742" lon="5.6719">
        <ele>386.401245</ele>
        <time>2018-07-02T13:58:26Z</time>
      </trkpt>
      <trkpt lat="45.18788" lon="5.67222">
        <ele>380.570007</ele>
        <time>2018-07-02T13:58:32Z</time>
      </trkpt>
      <trkpt lat="45.18819" lon="5.67234">
        <ele>378.241394</ele>
        <time>2018-07-02T13:58:37Z</time>
      </trkpt>
      <trkpt lat="45.18823" lon="5.67242">
        <ele>377.107391</ele>
        <time>2018-07-02T13:58:39Z</time>
      </trkpt>
      <trkpt lat="45.18822" lon="5.67249">
        <ele>376.228241</ele>
        <time>2018-07-02T13:58:40Z</time>
      </trkpt>
      <trkpt lat="45.18778" lon="5.67316">
        <ele>369.40802</ele>
        <time>2018-07-02T13:58:49Z</time>
      </trkpt>
      <trkpt lat="45.18774" lon="5.67326">
        <ele>368.241211</ele>
        <time>2018-07-02T13:58:50Z</time>
      </trkpt>
      <trkpt lat="45.18769" lon="5.67367">
        <ele>362.44516</ele>
        <time>2018-07-02T13:58:54Z</time>
      </trkpt>
      <trkpt lat="45.18765" lon="5.67381">
        <ele>360.399139</ele>
        <time>2018-07-02T13:58:56Z</time>
      </trkpt>
      <trkpt lat="45.1875" lon="5.67403">
        <ele>357.531464</ele>
        <time>2018-07-02T13:58:59Z</time>
      </trkpt>
      <trkpt lat="45.18727" lon="5.67447">
        <ele>352.696777</ele>
        <time>2018-07-02T13:59:05Z</time>
      </trkpt>
      <trkpt lat="45.18725" lon="5.67457">
        <ele>351.486237</ele>
        <time>2018-07-02T13:59:07Z</time>
      </trkpt>
      <trkpt lat="45.18727" lon="5.67462">
        <ele>350.738159</ele>
        <time>2018-07-02T13:59:08Z</time>
      </trkpt>
      <trkpt lat="45.18741" lon="5.67474">
        <ele>347.722168</ele>
        <time>2018-07-02T13:59:12Z</time>
      </trkpt>
      <trkpt lat="45.18749" lon="5.67486">
        <ele>345.269348</ele>
        <time>2018-07-02T13:59:14Z</time>
      </trkpt>
      <trkpt lat="45.18772" lon="5.67544">
        <ele>336.660461</ele>
        <time>2018-07-02T13:59:21Z</time>
      </trkpt>
      <trkpt lat="45.18773" lon="5.67561">
        <ele>334.5</ele>
        <time>2018-07-02T13:59:23Z</time>
      </trkpt>
      <trkpt lat="45.18771" lon="5.67568">
        <ele>333.73999</ele>
        <time>2018-07-02T13:59:24Z</time>
      </trkpt>
      <trkpt lat="45.18743" lon="5.67617">
        <ele>330.648346</ele>
        <time>2018-07-02T13:59:31Z</time>
      </trkpt>
      <trkpt lat="45.18732" lon="5.67668">
        <ele>326.206726</ele>
        <time>2018-07-02T13:59:36Z</time>
      </trkpt>
      <trkpt lat="45.18726" lon="5.67681">
        <ele>325.567505</ele>
        <time>2018-07-02T13:59:38Z</time>
      </trkpt>
      <trkpt lat="45.18691" lon="5.67701">
        <ele>327.931274</ele>
        <time>2018-07-02T13:59:45Z</time>
      </trkpt>
      <trkpt lat="45.18656" lon="5.67735">
        <ele>328.792084</ele>
        <time>2018-07-02T13:59:56Z</time>
      </trkpt>
      <trkpt lat="45.18627" lon="5.67788">
        <ele>325.565002</ele>
        <time>2018-07-02T14:00:03Z</time>
      </trkpt>
      <trkpt lat="45.18589" lon="5.67851">
        <ele>322.525269</ele>
        <time>2018-07-02T14:00:10Z</time>
      </trkpt>
      <trkpt lat="45.18568" lon="5.67895">
        <ele>321.154999</ele>
        <time>2018-07-02T14:00:15Z</time>
      </trkpt>
      <trkpt lat="45.18564" lon="5.6791">
        <ele>320.233673</ele>
        <time>2018-07-02T14:00:17Z</time>
      </trkpt>
      <trkpt lat="45.1856" lon="5.67974">
        <ele>318.039764</ele>
        <time>2018-07-02T14:00:24Z</time>
      </trkpt>
      <trkpt lat="45.18564" lon="5.68003">
        <ele>315.864807</ele>
        <time>2018-07-02T14:00:27Z</time>
      </trkpt>
      <trkpt lat="45.18569" lon="5.68017">
        <ele>313.976074</ele>
        <time>2018-07-02T14:00:30Z</time>
      </trkpt>
      <trkpt lat="45.18555" lon="5.68064">
        <ele>314.085236</ele>
        <time>2018-07-02T14:00:41Z</time>
      </trkpt>
      <trkpt lat="45.18541" lon="5.68081">
        <ele>315.303497</ele>
        <time>2018-07-02T14:00:50Z</time>
      </trkpt>
      <trkpt lat="45.18548" lon="5.68107">
        <ele>311.748749</ele>
        <time>2018-07-02T14:01:00Z</time>
      </trkpt>
      <trkpt lat="45.18542" lon="5.68117">
        <ele>311.705475</ele>
        <time>2018-07-02T14:01:06Z</time>
      </trkpt>
      <trkpt lat="45.18532" lon="5.68121">
        <ele>313.234314</ele>
        <time>2018-07-02T14:01:17Z</time>
      </trkpt>
      <trkpt lat="45.18525" lon="5.68118">
        <ele>314.905945</ele>
        <time>2018-07-02T15:46:01Z</time>
      </trkpt>
      <trkpt lat="45.18531" lon="5.68126">
        <ele>312.817078</ele>
        <time>2018-07-02T15:46:35Z</time>
      </trkpt>
      <trkpt lat="45.18532" lon="5.68133">
        <ele>311.767853</ele>
        <time>2018-07-02T15:46:46Z</time>
      </trkpt>
      <trkpt lat="45.18528" lon="5.68232">
        <ele>292.780457</ele>
        <time>2018-07-02T15:47:02Z</time>
      </trkpt>
      <trkpt lat="45.18499" lon="5.68297">
        <ele>293.132355</ele>
        <time>2018-07-02T15:47:13Z</time>
      </trkpt>
      <trkpt lat="45.18469" lon="5.68339">
        <ele>307.285889</ele>
        <time>2018-07-02T15:47:19Z</time>
      </trkpt>
      <trkpt lat="45.18445" lon="5.68386">
        <ele>310.820465</ele>
        <time>2018-07-02T15:47:25Z</time>
      </trkpt>
      <trkpt lat="45.18438" lon="5.68407">
        <ele>309.841339</ele>
        <time>2018-07-02T15:47:28Z</time>
      </trkpt>
      <trkpt lat="45.18427" lon="5.68427">
        <ele>310.231812</ele>
        <time>2018-07-02T15:47:33Z</time>
      </trkpt>
      <trkpt lat="45.18401" lon="5.68492">
        <ele>304.744049</ele>
        <time>2018-07-02T15:47:47Z</time>
      </trkpt>
      <trkpt lat="45.18363" lon="5.6853">
        <ele>300.576569</ele>
        <time>2018-07-02T15:47:55Z</time>
      </trkpt>
      <trkpt lat="45.18335" lon="5.6857">
        <ele>288.637787</ele>
        <time>2018-07-02T15:48:00Z</time>
      </trkpt>
      <trkpt lat="45.18324" lon="5.68579">
        <ele>285.369598</ele>
        <time>2018-07-02T15:48:02Z</time>
      </trkpt>
      <trkpt lat="45.18301" lon="5.68588">
        <ele>280.412628</ele>
        <time>2018-07-02T15:48:06Z</time>
      </trkpt>
      <trkpt lat="45.18278" lon="5.68603">
        <ele>272.628967</ele>
        <time>2018-07-02T15:48:10Z</time>
      </trkpt>
      <trkpt lat="45.18258" lon="5.6861">
        <ele>267.07251</ele>
        <time>2018-07-02T15:48:13Z</time>
      </trkpt>
      <trkpt lat="45.18204" lon="5.68613">
        <ele>255.95018</ele>
        <time>2018-07-02T15:48:21Z</time>
      </trkpt>
      <trkpt lat="45.18182" lon="5.68621">
        <ele>247.48494</ele>
        <time>2018-07-02T15:48:26Z</time>
      </trkpt>
      <trkpt lat="45.18173" lon="5.68618">
        <ele>246.710876</ele>
        <time>2018-07-02T15:48:29Z</time>
      </trkpt>
      <trkpt lat="45.18159" lon="5.68603">
        <ele>248.958633</ele>
        <time>2018-07-02T15:48:32Z</time>
      </trkpt>
      <trkpt lat="45.18148" lon="5.68597">
        <ele>248.537003</ele>
        <time>2018-07-02T15:48:34Z</time>
      </trkpt>
      <trkpt lat="45.18092" lon="5.68585">
        <ele>241.949173</ele>
        <time>2018-07-02T15:48:46Z</time>
      </trkpt>
      <trkpt lat="45.1809" lon="5.68587">
        <ele>240.035446</ele>
        <time>2018-07-02T15:48:47Z</time>
      </trkpt>
      <trkpt lat="45.18091" lon="5.68592">
        <ele>237.561295</ele>
        <time>2018-07-02T15:48:48Z</time>
      </trkpt>
      <trkpt lat="45.18138" lon="5.68632">
        <ele>233.941742</ele>
        <time>2018-07-02T15:48:57Z</time>
      </trkpt>
      <trkpt lat="45.18158" lon="5.68656">
        <ele>229.696777</ele>
        <time>2018-07-02T15:49:01Z</time>
      </trkpt>
      <trkpt lat="45.18175" lon="5.68665">
        <ele>229.68309</ele>
        <time>2018-07-02T15:49:05Z</time>
      </trkpt>
      <trkpt lat="45.18175" lon="5.68667">
        <ele>229.292007</ele>
        <time>2018-07-02T15:49:06Z</time>
      </trkpt>
      <trkpt lat="45.18173" lon="5.6867">
        <ele>228.516129</ele>
        <time>2018-07-02T15:49:07Z</time>
      </trkpt>
      <trkpt lat="45.18141" lon="5.68669">
        <ele>223.82135</ele>
        <time>2018-07-02T15:49:14Z</time>
      </trkpt>
      <trkpt lat="45.18137" lon="5.68676">
        <ele>222.708115</ele>
        <time>2018-07-02T15:49:16Z</time>
      </trkpt>
      <trkpt lat="45.18139" lon="5.68691">
        <ele>221.462601</ele>
        <time>2018-07-02T15:49:19Z</time>
      </trkpt>
      <trkpt lat="45.18142" lon="5.68695">
        <ele>221.294067</ele>
        <time>2018-07-02T15:49:20Z</time>
      </trkpt>
      <trkpt lat="45.1815" lon="5.687">
        <ele>221.410339</ele>
        <time>2018-07-02T15:49:22Z</time>
      </trkpt>
      <trkpt lat="45.18161" lon="5.68718">
        <ele>219.680054</ele>
        <time>2018-07-02T15:49:26Z</time>
      </trkpt>
      <trkpt lat="45.18173" lon="5.6876">
        <ele>217.819992</ele>
        <time>2018-07-02T15:49:34Z</time>
      </trkpt>
      <trkpt lat="45.18188" lon="5.68775">
        <ele>217.836807</ele>
        <time>2018-07-02T15:49:39Z</time>
      </trkpt>
      <trkpt lat="45.18207" lon="5.68855">
        <ele>216.703751</ele>
        <time>2018-07-02T15:49:53Z</time>
      </trkpt>
      <trkpt lat="45.18246" lon="5.68996">
        <ele>216</ele>
        <time>2018-07-02T15:50:15Z</time>
      </trkpt>
      <trkpt lat="45.1827" lon="5.69088">
        <ele>216.097229</ele>
        <time>2018-07-02T15:50:30Z</time>
      </trkpt>
      <trkpt lat="45.18267" lon="5.69093">
        <ele>216.061401</ele>
        <time>2018-07-02T15:50:31Z</time>
      </trkpt>
      <trkpt lat="45.18218" lon="5.69127">
        <ele>215.747498</ele>
        <time>2018-07-02T15:50:43Z</time>
      </trkpt>
      <trkpt lat="45.18186" lon="5.69153">
        <ele>215.710587</ele>
        <time>2018-07-02T15:50:50Z</time>
      </trkpt>
      <trkpt lat="45.18119" lon="5.69229">
        <ele>216</ele>
        <time>2018-07-02T15:51:07Z</time>
      </trkpt>
      <trkpt lat="45.18111" lon="5.69255">
        <ele>215.705505</ele>
        <time>2018-07-02T15:51:13Z</time>
      </trkpt>
      <trkpt lat="45.18029" lon="5.69348">
        <ele>215.006165</ele>
        <time>2018-07-02T15:51:36Z</time>
      </trkpt>
      <trkpt lat="45.18015" lon="5.69369">
        <ele>215</ele>
        <time>2018-07-02T15:51:40Z</time>
      </trkpt>
      <trkpt lat="45.18019" lon="5.69447">
        <ele>214.542496</ele>
        <time>2018-07-02T15:51:57Z</time>
      </trkpt>
      <trkpt lat="45.18004" lon="5.69697">
        <ele>214</ele>
        <time>2018-07-02T15:52:41Z</time>
      </trkpt>
      <trkpt lat="45.18002" lon="5.69702">
        <ele>214</ele>
        <time>2018-07-02T15:52:53Z</time>
      </trkpt>
      <trkpt lat="45.18001" lon="5.69768">
        <ele>214</ele>
        <time>2018-07-02T15:53:16Z</time>
      </trkpt>
      <trkpt lat="45.1801" lon="5.69772">
        <ele>214</ele>
        <time>2018-07-02T15:53:19Z</time>
      </trkpt>
      <trkpt lat="45.18033" lon="5.69776">
        <ele>213.830597</ele>
        <time>2018-07-02T15:53:28Z</time>
      </trkpt>
      <trkpt lat="45.1803" lon="5.69792">
        <ele>213.949142</ele>
        <time>2018-07-02T15:53:34Z</time>
      </trkpt>
      <trkpt lat="45.18021" lon="5.69997">
        <ele>213.713196</ele>
        <time>2018-07-02T15:54:15Z</time>
      </trkpt>
      <trkpt lat="45.18015" lon="5.70257">
        <ele>216.704803</ele>
        <time>2018-07-02T15:54:57Z</time>
      </trkpt>
      <trkpt lat="45.18015" lon="5.70356">
        <ele>217</ele>
        <time>2018-07-02T15:55:11Z</time>
      </trkpt>
      <trkpt lat="45.18021" lon="5.70511">
        <ele>216.330002</ele>
        <time>2018-07-02T15:55:32Z</time>
      </trkpt>
      <trkpt lat="45.18024" lon="5.70526">
        <ele>216.257507</ele>
        <time>2018-07-02T15:55:34Z</time>
      </trkpt>
      <trkpt lat="45.18024" lon="5.70542">
        <ele>216.235001</ele>
        <time>2018-07-02T15:55:36Z</time>
      </trkpt>
      <trkpt lat="45.18029" lon="5.70569">
        <ele>216.119995</ele>
        <time>2018-07-02T15:55:40Z</time>
      </trkpt>
      <trkpt lat="45.18028" lon="5.70573">
        <ele>216.134995</ele>
        <time>2018-07-02T15:55:41Z</time>
      </trkpt>
      <trkpt lat="45.18024" lon="5.70576">
        <ele>216.225006</ele>
        <time>2018-07-02T15:55:59Z</time>
      </trkpt>
      <trkpt lat="45.17998" lon="5.70579">
        <ele>216.804993</ele>
        <time>2018-07-02T15:57:01Z</time>
      </trkpt>
      <trkpt lat="45.17994" lon="5.7059">
        <ele>216.872498</ele>
        <time>2018-07-02T15:57:04Z</time>
      </trkpt>
      <trkpt lat="45.17996" lon="5.70658">
        <ele>216.899368</ele>
        <time>2018-07-02T15:57:14Z</time>
      </trkpt>
      <trkpt lat="45.17999" lon="5.70701">
        <ele>216.813751</ele>
        <time>2018-07-02T15:57:20Z</time>
      </trkpt>
      <trkpt lat="45.18001" lon="5.7071">
        <ele>216.673752</ele>
        <time>2018-07-02T15:57:21Z</time>
      </trkpt>
      <trkpt lat="45.18006" lon="5.70831">
        <ele>216</ele>
        <time>2018-07-02T15:57:34Z</time>
      </trkpt>
      <trkpt lat="45.18008" lon="5.70992">
        <ele>215</ele>
        <time>2018-07-02T15:57:49Z</time>
      </trkpt>
      <trkpt lat="45.18005" lon="5.71161">
        <ele>214.69812</ele>
        <time>2018-07-02T15:58:12Z</time>
      </trkpt>
      <trkpt lat="45.18014" lon="5.71531">
        <ele>213.789993</ele>
        <time>2018-07-02T15:58:57Z</time>
      </trkpt>
      <trkpt lat="45.18011" lon="5.71533">
        <ele>213.860001</ele>
        <time>2018-07-02T15:58:58Z</time>
      </trkpt>
      <trkpt lat="45.17963" lon="5.71527">
        <ele>214</ele>
        <time>2018-07-02T15:59:17Z</time>
      </trkpt>
      <trkpt lat="45.17931" lon="5.71511">
        <ele>214</ele>
        <time>2018-07-02T15:59:34Z</time>
      </trkpt>
      <trkpt lat="45.17924" lon="5.71513">
        <ele>214</ele>
        <time>2018-07-02T15:59:47Z</time>
      </trkpt>
      <trkpt lat="45.17921" lon="5.71526">
        <ele>214</ele>
        <time>2018-07-02T15:59:54Z</time>
      </trkpt>
      <trkpt lat="45.179" lon="5.71533">
        <ele>214</ele>
        <time>2018-07-02T16:00:13Z</time>
      </trkpt>
    </trkseg>
  </trk>
</gpx>